Observation data for Amarillo 7 South Southeast on 08/14/2019      Previous  Date  Next       Current Mesonet Observations  Soil Data  Daily Summary Page  Observations in Plain Language
KAM1 140500Z 10010KT 23/18 A302 RMK A01 T02340179  RH  071%=      5-min Rain = 0
KAM1 140501Z 10010KT 23/18 A302 RMK A01 T02330179  RH  071%=      5-min Rain = 0
KAM1 140502Z 10010KT 23/18 A302 RMK A01 T02330179  RH  072%=      5-min Rain = 0
KAM1 140503Z 10010KT 23/18 A302 RMK A01 T02330179  RH  072%=      5-min Rain = 0
KAM1 140504Z 10010KT 23/18 A302 RMK A01 T02320179  RH  072%=      5-min Rain = 0
KAM1 140505Z 10009KT 23/18 A302 RMK A01 T02320179  RH  072%=      5-min Rain = 0
KAM1 140506Z 10010KT 23/18 A302 RMK A01 T02310179  RH  072%=      5-min Rain = 0
KAM1 140507Z 10010KT 23/18 A302 RMK A01 T02310179  RH  072%=      5-min Rain = 0
KAM1 140508Z 10010KT 23/18 A302 RMK A01 T02320179  RH  072%=      5-min Rain = 0
KAM1 140509Z 11008KT 23/18 A302 RMK A01 T02310178  RH  072%=      5-min Rain = 0
KAM1 140510Z 10008KT 23/18 A302 RMK A01 T02310178  RH  072%=      5-min Rain = 0
KAM1 140527Z 08012KT 23/18 A3022 RMK A01 T02330178  RH  071%=      5-min Rain = 0
KAM1 140528Z 08012KT 23/18 A3022 RMK A01 T02330178  RH  071%=      5-min Rain = 0
KAM1 140529Z 08012KT 23/18 A3022 RMK A01 T02320178  RH  072%=      5-min Rain = 0
KAM1 140530Z 08011KT 23/18 A3022 RMK A01 T02310178  RH  072%=      5-min Rain = 0
KAM1 140531Z 08011G16KT 23/18 A3022 RMK A01 T02310179  RH  073%=      5-min Rain = 0
KAM1 140532Z 08014KT 23/18 A3023 RMK A01 T02300179  RH  073%=      5-min Rain = 0
KAM1 140533Z 08012KT 23/18 A3023 RMK A01 T02290179  RH  073%=      5-min Rain = 0
KAM1 140534Z 08012KT 23/18 A3023 RMK A01 T02300180  RH  073%=      5-min Rain = 0
KAM1 140535Z 08012KT 23/18 A3023 RMK A01 T02290180  RH  074%=      5-min Rain = 0
KAM1 140536Z 08013KT 23/18 A3023 RMK A01 T02290180  RH  074%=      5-min Rain = 0
KAM1 140537Z 08011KT 23/18 A3023 RMK A01 T02290180  RH  074%=      5-min Rain = 0
KAM1 140538Z 08012KT 23/18 A3023 RMK A01 T02290180  RH  074%=      5-min Rain = 0
KAM1 140539Z 08012KT 23/18 A3023 RMK A01 T02290180  RH  074%=      5-min Rain = 0
KAM1 140540Z 08012KT 23/18 A3023 RMK A01 T02280180  RH  074%=      5-min Rain = 0
KAM1 140541Z 08012KT 23/18 A3023 RMK A01 T02280180  RH  074%=      5-min Rain = 0
KAM1 140542Z 08010KT 23/18 A3023 RMK A01 T02280180  RH  075%=      5-min Rain = 0
KAM1 140543Z 08011KT 23/18 A3023 RMK A01 T02270180  RH  075%=      5-min Rain = 0
KAM1 140544Z 09011KT 23/18 A3023 RMK A01 T02270181  RH  075%=      5-min Rain = 0
KAM1 140545Z 09010KT 23/18 A3023 RMK A01 T02260180  RH  075%=      5-min Rain = 0
KAM1 140546Z 09010KT 23/18 A3023 RMK A01 T02260180  RH  076%=      5-min Rain = 0
KAM1 140547Z 09010KT 23/18 A3023 RMK A01 T02250180  RH  076%=      5-min Rain = 0
KAM1 140548Z 09008KT 23/18 A3023 RMK A01 T02250180  RH  076%=      5-min Rain = 0
KAM1 140549Z 09010KT 22/18 A3023 RMK A01 T02240180  RH  076%=      5-min Rain = 0
KAM1 140550Z 09009KT 22/18 A3023 RMK A01 T02240180  RH  076%=      5-min Rain = 0
KAM1 140551Z 09009KT 22/18 A3023 RMK A01 T02240181  RH  077%=      5-min Rain = 0
KAM1 140552Z 09009KT 22/18 A3023 RMK A01 T02230180  RH  077%=      5-min Rain = 0
KAM1 140553Z 09009KT 22/18 A3023 RMK A01 T02220180  RH  077%=      5-min Rain = 0
KAM1 140554Z 09008KT 22/18 A3023 RMK A01 T02220181  RH  077%=      5-min Rain = 0
KAM1 140555Z 09009KT 22/18 A3023 RMK A01 T02220181  RH  077%=      5-min Rain = 0
KAM1 140556Z 09008KT 22/18 A3023 RMK A01 T02210180  RH  078%=      5-min Rain = 0
KAM1 140557Z 09008KT 22/18 A3023 RMK A01 T02210181  RH  078%=      5-min Rain = 0
KAM1 140558Z 09008KT 22/18 A3023 RMK A01 T02200181  RH  078%=      5-min Rain = 0
KAM1 140559Z 10008KT 22/18 A3023 RMK A01 T02200181  RH  078%=      5-min Rain = 0
KAM1 140600Z 10008KT 22/18 A3023 RMK A01 T02200181  RH  078%=      5-min Rain = 0
KAM1 140601Z 10007KT 22/18 A3023 RMK A01 T02200181  RH  078%=      5-min Rain = 0
KAM1 140602Z 10007KT 22/18 A3022 RMK A01 T02200180  RH  078%=      5-min Rain = 0
KAM1 140603Z 10008KT 22/18 A3022 RMK A01 T02190180  RH  079%=      5-min Rain = 0
KAM1 140604Z 10007KT 22/18 A3022 RMK A01 T02190180  RH  079%=      5-min Rain = 0
KAM1 140605Z 10007KT 22/18 A3022 RMK A01 T02190180  RH  079%=      5-min Rain = 0
KAM1 140606Z 10007KT 22/18 A3022 RMK A01 T02190180  RH  079%=      5-min Rain = 0
KAM1 140607Z 10007KT 22/18 A3022 RMK A01 T02190180  RH  079%=      5-min Rain = 0
KAM1 140608Z 10006KT 22/18 A3022 RMK A01 T02180180  RH  079%=      5-min Rain = 0
KAM1 140609Z 10006KT 22/18 A3022 RMK A01 T02180180  RH  079%=      5-min Rain = 0
KAM1 140610Z 10007KT 22/18 A3022 RMK A01 T02170180  RH  079%=      5-min Rain = 0
KAM1 140611Z 11007KT 22/18 A3022 RMK A01 T02170180  RH  079%=      5-min Rain = 0
KAM1 140612Z 11008KT 22/18 A3022 RMK A01 T02170180  RH  079%=      5-min Rain = 0
KAM1 140613Z 11007KT 22/18 A3022 RMK A01 T02170180  RH  080%=      5-min Rain = 0
KAM1 140614Z 11008KT 22/18 A3021 RMK A01 T02170180  RH  080%=      5-min Rain = 0
KAM1 140615Z 11008KT 22/18 A3021 RMK A01 T02160181  RH  080%=      5-min Rain = 0
KAM1 140616Z 11008KT 22/18 A3021 RMK A01 T02150181  RH  081%=      5-min Rain = 0
KAM1 140617Z 11008KT 22/18 A3021 RMK A01 T02150181  RH  081%=      5-min Rain = 0
KAM1 140618Z 11007KT 22/18 A3021 RMK A01 T02150181  RH  081%=      5-min Rain = 0
KAM1 140619Z 11007KT 22/18 A3022 RMK A01 T02150181  RH  081%=      5-min Rain = 0
KAM1 140620Z 11007KT 21/18 A3022 RMK A01 T02140181  RH  082%=      5-min Rain = 0
KAM1 140621Z 11006KT 21/18 A3022 RMK A01 T02140182  RH  082%=      5-min Rain = 0
KAM1 140622Z 10006KT 21/18 A3022 RMK A01 T02130181  RH  082%=      5-min Rain = 0
KAM1 140623Z 10005KT 21/18 A3022 RMK A01 T02130181  RH  082%=      5-min Rain = 0
KAM1 140624Z 10005KT 21/18 A3022 RMK A01 T02130182  RH  082%=      5-min Rain = 0
KAM1 140625Z 10006KT 21/18 A3022 RMK A01 T02130181  RH  082%=      5-min Rain = 0
KAM1 140626Z 10005KT 21/18 A3022 RMK A01 T02130181  RH  082%=      5-min Rain = 0
KAM1 140627Z 11005KT 21/18 A3022 RMK A01 T02130181  RH  082%=      5-min Rain = 0
KAM1 140628Z 11005KT 21/18 A3022 RMK A01 T02130181  RH  082%=      5-min Rain = 0
KAM1 140629Z 11005KT 21/18 A3022 RMK A01 T02130181  RH  082%=      5-min Rain = 0
KAM1 140630Z 11005KT 21/18 A3022 RMK A01 T02130181  RH  082%=      5-min Rain = 0
KAM1 140631Z 11005KT 21/18 A3022 RMK A01 T02130181  RH  082%=      5-min Rain = 0
KAM1 140632Z 11005KT 21/18 A3022 RMK A01 T02120181  RH  082%=      5-min Rain = 0
KAM1 140633Z 11005KT 21/18 A3022 RMK A01 T02120181  RH  082%=      5-min Rain = 0
KAM1 140634Z 10005KT 21/18 A3022 RMK A01 T02120181  RH  082%=      5-min Rain = 0
KAM1 140635Z 09005KT 21/18 A3023 RMK A01 T02120181  RH  082%=      5-min Rain = 0
KAM1 140636Z 07005KT 21/18 A3023 RMK A01 T02110181  RH  083%=      5-min Rain = 0
KAM1 140637Z 05009KT 21/18 A3024 RMK A01 T02110181  RH  083%=      5-min Rain = 0
KAM1 140638Z 04012KT 21/18 A3025 RMK A01 T02110181  RH  083%=      5-min Rain = 0
KAM1 140639Z 04016G21KT 21/18 A3025 RMK A01 T02120182  RH  083%=      5-min Rain = 0
KAM1 140640Z 05019KT 21/18 A3025 RMK A01 T02120180  RH  082%=      5-min Rain = 0
KAM1 140641Z 05018G24KT 21/18 A3025 RMK A01 T02130175  RH  079%=      5-min Rain = 0
KAM1 140642Z 05019KT 21/17 A3025 RMK A01 T02130169  RH  076%=      5-min Rain = 0
KAM1 140643Z 05018KT 21/16 A3024 RMK A01 T02110164  RH  075%=      5-min Rain = 0
KAM1 140644Z 05018KT 21/16 A3024 RMK A01 T02090163  RH  075%=      5-min Rain = 0
KAM1 140645Z 05020KT 21/16 A3024 RMK A01 T02080161  RH  075%=      5-min Rain = 0
KAM1 140646Z 05017KT 21/16 A3024 RMK A01 T02060160  RH  075%=      5-min Rain = 0
KAM1 140647Z 05018KT 21/16 A3024 RMK A01 T02050158  RH  074%=      5-min Rain = 0
KAM1 140648Z 05017G22KT 20/16 A3024 RMK A01 T02040157  RH  074%=      5-min Rain = 0
KAM1 140649Z 06014G20KT 20/16 A3024 RMK A01 T02040156  RH  074%=      5-min Rain = 0
KAM1 140650Z 06018KT 20/16 A3024 RMK A01 T02030156  RH  075%=      5-min Rain = 0
KAM1 140651Z 06017KT 20/16 A3024 RMK A01 T02020156  RH  075%=      5-min Rain = 0
KAM1 140652Z 06019KT 20/16 A3025 RMK A01 T02020155  RH  074%=      5-min Rain = 0
KAM1 140653Z 06019KT 20/15 A3025 RMK A01 T02020154  RH  074%=      5-min Rain = 0
KAM1 140654Z 06017KT 20/15 A3025 RMK A01 T02020153  RH  073%=      5-min Rain = 0
KAM1 140655Z 06017G22KT 20/15 A3025 RMK A01 T02020152  RH  073%=      5-min Rain = 0
KAM1 140656Z 06017KT 20/15 A3025 RMK A01 T02020152  RH  073%=      5-min Rain = 0
KAM1 140657Z 06016KT 20/15 A3025 RMK A01 T02010151  RH  073%=      5-min Rain = 0
KAM1 140658Z 06015KT 20/15 A3025 RMK A01 T02010151  RH  073%=      5-min Rain = 0
KAM1 140659Z 06013G18KT 20/15 A3025 RMK A01 T02010151  RH  073%=      5-min Rain = 0
KAM1 140700Z 06012KT 20/15 A3025 RMK A01 T02000151  RH  073%=      5-min Rain = 0
KAM1 140701Z 06013G18KT 20/15 A3025 RMK A01 T01990151  RH  074%=      5-min Rain = 0
KAM1 140702Z 06013KT 20/15 A3024 RMK A01 T01990151  RH  074%=      5-min Rain = 0
KAM1 140703Z 06012KT 20/15 A3024 RMK A01 T01990150  RH  074%=      5-min Rain = 0
KAM1 140704Z 05013KT 20/15 A3024 RMK A01 T01980150  RH  074%=      5-min Rain = 0
KAM1 140705Z 05014KT 20/15 A3024 RMK A01 T01980150  RH  074%=      5-min Rain = 0
KAM1 140706Z 06014KT 20/15 A3024 RMK A01 T01970149  RH  074%=      5-min Rain = 0
KAM1 140707Z 06014KT 20/15 A3024 RMK A01 T01960148  RH  074%=      5-min Rain = 0
KAM1 140708Z 07016KT 20/15 A3024 RMK A01 T01960146  RH  073%=      5-min Rain = 0
KAM1 140709Z 06013G18KT 20/15 A3024 RMK A01 T01950145  RH  073%=      5-min Rain = 0
KAM1 140710Z 06012KT 20/15 A3024 RMK A01 T01950145  RH  073%=      5-min Rain = 0
KAM1 140711Z 07013KT 19/15 A3023 RMK A01 T01940145  RH  073%=      5-min Rain = 0
KAM1 140712Z 07013KT 19/14 A3023 RMK A01 T01940144  RH  073%=      5-min Rain = 0
KAM1 140713Z 07012KT 19/14 A3023 RMK A01 T01930144  RH  073%=      5-min Rain = 0
KAM1 140714Z 07013KT 19/15 A3023 RMK A01 T01930145  RH  074%=      5-min Rain = 0
KAM1 140715Z 06012KT 19/15 A3023 RMK A01 T01920145  RH  074%=      5-min Rain = 0
KAM1 140716Z 06012KT 19/15 A3023 RMK A01 T01920145  RH  074%=      5-min Rain = 0
KAM1 140717Z 06014KT 19/15 A3023 RMK A01 T01910145  RH  074%=      5-min Rain = 0
KAM1 140718Z 06015KT 19/15 A3023 RMK A01 T01910145  RH  074%=      5-min Rain = 0
KAM1 140719Z 06013KT 19/15 A3023 RMK A01 T01910145  RH  075%=      5-min Rain = 0
KAM1 140720Z 06013KT 19/15 A3023 RMK A01 T01910145  RH  075%=      5-min Rain = 0
KAM1 140721Z 06013KT 19/14 A3023 RMK A01 T01900144  RH  075%=      5-min Rain = 0
KAM1 140722Z 06011KT 19/14 A3023 RMK A01 T01900144  RH  075%=      5-min Rain = 0
KAM1 140723Z 06013KT 19/14 A3023 RMK A01 T01890144  RH  075%=      5-min Rain = 0
KAM1 140724Z 06011KT 19/14 A3023 RMK A01 T01890144  RH  075%=      5-min Rain = 0
KAM1 140725Z 06012KT 19/14 A3023 RMK A01 T01880143  RH  075%=      5-min Rain = 0
KAM1 140726Z 06012KT 19/14 A3023 RMK A01 T01880143  RH  075%=      5-min Rain = 0
KAM1 140727Z 06011G16KT 19/14 A3023 RMK A01 T01880143  RH  075%=      5-min Rain = 0
KAM1 140728Z 06012KT 19/14 A3023 RMK A01 T01870142  RH  075%=      5-min Rain = 0
KAM1 140729Z 06011KT 19/14 A3023 RMK A01 T01870142  RH  075%=      5-min Rain = 0
KAM1 140730Z 06012KT 19/14 A3024 RMK A01 T01870142  RH  075%=      5-min Rain = 0
KAM1 140731Z 06013KT 19/14 A3024 RMK A01 T01870141  RH  075%=      5-min Rain = 0
KAM1 140732Z 06015KT 19/14 A3023 RMK A01 T01860140  RH  074%=      5-min Rain = 0
KAM1 140733Z 06015KT 19/14 A3023 RMK A01 T01860139  RH  074%=      5-min Rain = 0
KAM1 140734Z 06012KT 19/14 A3023 RMK A01 T01860138  RH  074%=      5-min Rain = 0
KAM1 140735Z 06013KT 19/14 A3023 RMK A01 T01860138  RH  074%=      5-min Rain = 0
KAM1 140736Z 06014KT 19/14 A3023 RMK A01 T01860138  RH  073%=      5-min Rain = 0
KAM1 140737Z 06013KT 19/14 A3023 RMK A01 T01860137  RH  073%=      5-min Rain = 0
KAM1 140738Z 06013KT 19/14 A3024 RMK A01 T01850137  RH  073%=      5-min Rain = 0
KAM1 140739Z 06016KT 19/14 A3024 RMK A01 T01850136  RH  073%=      5-min Rain = 0
KAM1 140740Z 06016KT 19/14 A3024 RMK A01 T01850135  RH  072%=      5-min Rain = 0
KAM1 140741Z 06014KT 19/14 A3023 RMK A01 T01850135  RH  072%=      5-min Rain = 0
KAM1 140742Z 06013KT 19/14 A3023 RMK A01 T01850135  RH  072%=      5-min Rain = 0
KAM1 140743Z 06015KT 19/14 A3023 RMK A01 T01850135  RH  073%=      5-min Rain = 0
KAM1 140744Z 06016KT 19/13 A3023 RMK A01 T01850134  RH  072%=      5-min Rain = 0
KAM1 140745Z 06013KT 19/13 A3023 RMK A01 T01850134  RH  072%=      5-min Rain = 0
KAM1 140746Z 06015KT 19/13 A3023 RMK A01 T01850134  RH  072%=      5-min Rain = 0
KAM1 140747Z 06013KT 18/13 A3023 RMK A01 T01840134  RH  072%=      5-min Rain = 0
KAM1 140748Z 06015KT 18/13 A3024 RMK A01 T01840133  RH  072%=      5-min Rain = 0
KAM1 140749Z 06012KT 18/13 A3024 RMK A01 T01840134  RH  072%=      5-min Rain = 0
KAM1 140750Z 05015KT 18/13 A3024 RMK A01 T01830133  RH  072%=      5-min Rain = 0
KAM1 140751Z 06014KT 18/13 A3024 RMK A01 T01830133  RH  072%=      5-min Rain = 0
KAM1 140752Z 05012G17KT 18/13 A3024 RMK A01 T01830132  RH  072%=      5-min Rain = 0
KAM1 140753Z 05014KT 18/13 A3024 RMK A01 T01830133  RH  072%=      5-min Rain = 0
KAM1 140754Z 05013KT 18/13 A3024 RMK A01 T01830132  RH  072%=      5-min Rain = 0
KAM1 140755Z 05013KT 18/13 A3024 RMK A01 T01830132  RH  072%=      5-min Rain = 0
KAM1 140756Z 06013KT 18/13 A3024 RMK A01 T01820132  RH  072%=      5-min Rain = 0
KAM1 140757Z 05011KT 18/13 A3024 RMK A01 T01820132  RH  072%=      5-min Rain = 0
KAM1 140758Z 05011KT 18/13 A3024 RMK A01 T01820132  RH  072%=      5-min Rain = 0
KAM1 140759Z 05015KT 18/13 A3024 RMK A01 T01820132  RH  073%=      5-min Rain = 0
KAM1 140800Z 05014KT 18/13 A3024 RMK A01 T01820132  RH  073%=      5-min Rain = 0
KAM1 140801Z 05013KT 18/13 A3024 RMK A01 T01820132  RH  072%=      5-min Rain = 0
KAM1 140802Z 06013KT 18/13 A3024 RMK A01 T01820132  RH  073%=      5-min Rain = 0
KAM1 140803Z 06011KT 18/13 A3024 RMK A01 T01810132  RH  073%=      5-min Rain = 0
KAM1 140804Z 06013KT 18/13 A3024 RMK A01 T01810132  RH  073%=      5-min Rain = 0
KAM1 140805Z 06012KT 18/13 A3024 RMK A01 T01810132  RH  073%=      5-min Rain = 0
KAM1 140806Z 06010KT 18/13 A3023 RMK A01 T01810132  RH  073%=      5-min Rain = 0
KAM1 140807Z 06011KT 18/13 A3023 RMK A01 T01800132  RH  074%=      5-min Rain = 0
KAM1 140808Z 06012KT 18/13 A3023 RMK A01 T01790132  RH  074%=      5-min Rain = 0
KAM1 140809Z 07012KT 18/13 A3023 RMK A01 T01790132  RH  074%=      5-min Rain = 0
KAM1 140810Z 06011KT 18/13 A3023 RMK A01 T01790132  RH  074%=      5-min Rain = 0
KAM1 140811Z 06011KT 18/13 A3023 RMK A01 T01790132  RH  074%=      5-min Rain = 0
KAM1 140812Z 07012KT 18/13 A3023 RMK A01 T01790132  RH  074%=      5-min Rain = 0
KAM1 140813Z 07013KT 18/13 A3023 RMK A01 T01790132  RH  074%=      5-min Rain = 0
KAM1 140814Z 07012KT 18/13 A3022 RMK A01 T01780132  RH  074%=      5-min Rain = 0
KAM1 140815Z 07011G16KT 18/13 A3022 RMK A01 T01780131  RH  074%=      5-min Rain = 0
KAM1 140816Z 06013KT 18/13 A3022 RMK A01 T01780131  RH  074%=      5-min Rain = 0
KAM1 140817Z 07013KT 18/13 A3022 RMK A01 T01780131  RH  074%=      5-min Rain = 0
KAM1 140818Z 06014KT 18/13 A3022 RMK A01 T01780131  RH  074%=      5-min Rain = 0
KAM1 140819Z 06012KT 18/13 A3022 RMK A01 T01780130  RH  074%=      5-min Rain = 0
KAM1 140820Z 06012KT 18/13 A3022 RMK A01 T01780130  RH  074%=      5-min Rain = 0
KAM1 140821Z 07013KT 18/13 A3022 RMK A01 T01780130  RH  074%=      5-min Rain = 0
KAM1 140822Z 07012KT 18/13 A3022 RMK A01 T01770130  RH  074%=      5-min Rain = 0
KAM1 140823Z 07011KT 18/13 A3022 RMK A01 T01780130  RH  073%=      5-min Rain = 0
KAM1 140824Z 07009KT 18/13 A3022 RMK A01 T01780130  RH  074%=      5-min Rain = 0
KAM1 140825Z 07010KT 18/13 A3022 RMK A01 T01770130  RH  074%=      5-min Rain = 0
KAM1 140826Z 07009KT 18/13 A3022 RMK A01 T01770130  RH  074%=      5-min Rain = 0
KAM1 140827Z 06011G16KT 18/13 A3022 RMK A01 T01760129  RH  074%=      5-min Rain = 0
KAM1 140828Z 06011KT 18/13 A3022 RMK A01 T01760129  RH  074%=      5-min Rain = 0
KAM1 140829Z 06012KT 18/13 A3022 RMK A01 T01760129  RH  074%=      5-min Rain = 0
KAM1 140830Z 06010KT 18/13 A3022 RMK A01 T01760129  RH  074%=      5-min Rain = 0
KAM1 140831Z 06011KT 18/13 A3022 RMK A01 T01760129  RH  074%=      5-min Rain = 0
KAM1 140832Z 06010KT 18/13 A3022 RMK A01 T01760129  RH  074%=      5-min Rain = 0
KAM1 140833Z 07010KT 18/13 A3022 RMK A01 T01760128  RH  073%=      5-min Rain = 0
KAM1 140834Z 06010KT 18/13 A3022 RMK A01 T01760129  RH  074%=      5-min Rain = 0
KAM1 140835Z 06009KT 18/13 A3022 RMK A01 T01760128  RH  074%=      5-min Rain = 0
KAM1 140836Z 06011KT 18/13 A3023 RMK A01 T01760128  RH  073%=      5-min Rain = 0
KAM1 140837Z 05010KT 18/13 A3023 RMK A01 T01770128  RH  073%=      5-min Rain = 0
KAM1 140838Z 05010KT 18/13 A3023 RMK A01 T01770128  RH  073%=      5-min Rain = 0
KAM1 140839Z 05011KT 18/13 A3023 RMK A01 T01770128  RH  073%=      5-min Rain = 0
KAM1 140840Z 05009KT 18/13 A3024 RMK A01 T01770127  RH  073%=      5-min Rain = 0
KAM1 140841Z 05008KT 18/13 A3024 RMK A01 T01770127  RH  073%=      5-min Rain = 0
KAM1 140842Z 05009KT 18/13 A3024 RMK A01 T01770128  RH  073%=      5-min Rain = 0
KAM1 140843Z 04007KT 18/13 A3024 RMK A01 T01770128  RH  073%=      5-min Rain = 0
KAM1 140844Z 04009KT 18/13 A3024 RMK A01 T01770128  RH  073%=      5-min Rain = 0
KAM1 140845Z 05008KT 18/13 A3024 RMK A01 T01770128  RH  073%=      5-min Rain = 0
KAM1 140846Z 04007KT 18/13 A3024 RMK A01 T01760127  RH  073%=      5-min Rain = 0
KAM1 140847Z 04007KT 18/13 A3024 RMK A01 T01760128  RH  073%=      5-min Rain = 0
KAM1 140848Z 05008KT 18/13 A3024 RMK A01 T01760128  RH  073%=      5-min Rain = 0
KAM1 140849Z 04009KT 18/13 A3024 RMK A01 T01750127  RH  074%=      5-min Rain = 0
KAM1 140850Z 04009KT 18/13 A3024 RMK A01 T01750128  RH  074%=      5-min Rain = 0
KAM1 140851Z 04009KT 18/13 A3024 RMK A01 T01750128  RH  074%=      5-min Rain = 0
KAM1 140852Z 04009KT 18/13 A3024 RMK A01 T01750128  RH  074%=      5-min Rain = 0
KAM1 140853Z 04009KT 18/13 A3024 RMK A01 T01750128  RH  074%=      5-min Rain = 0
KAM1 140854Z 04010KT 18/13 A3024 RMK A01 T01750128  RH  074%=      5-min Rain = 0
KAM1 140855Z 05010KT 18/13 A3024 RMK A01 T01750128  RH  074%=      5-min Rain = 0
KAM1 140856Z 05008KT 18/13 A3024 RMK A01 T01750128  RH  074%=      5-min Rain = 0
KAM1 140857Z 05011KT 18/13 A3024 RMK A01 T01750127  RH  074%=      5-min Rain = 0
KAM1 140858Z 04008KT 18/13 A3024 RMK A01 T01750127  RH  073%=      5-min Rain = 0
KAM1 140859Z 05010KT 18/13 A3025 RMK A01 T01750127  RH  073%=      5-min Rain = 0
KAM1 140900Z 05010KT 18/13 A3025 RMK A01 T01760127  RH  073%=      5-min Rain = 0
KAM1 140901Z 04010KT 18/13 A3025 RMK A01 T01760127  RH  073%=      5-min Rain = 0
KAM1 140902Z 05010KT 18/13 A3025 RMK A01 T01770127  RH  073%=      5-min Rain = 0
KAM1 140903Z 04010KT 18/13 A3025 RMK A01 T01770127  RH  073%=      5-min Rain = 0
KAM1 140904Z 04010KT 18/13 A3025 RMK A01 T01780128  RH  072%=      5-min Rain = 0
KAM1 140905Z 04012KT 18/13 A3026 RMK A01 T01780127  RH  072%=      5-min Rain = 0
KAM1 140906Z 04009KT 18/13 A3026 RMK A01 T01790127  RH  072%=      5-min Rain = 0
KAM1 140907Z 04010KT 18/13 A3026 RMK A01 T01790127  RH  072%=      5-min Rain = 0
KAM1 140908Z 04010KT 18/13 A3026 RMK A01 T01790128  RH  072%=      5-min Rain = 0
KAM1 140909Z 04012KT 18/13 A3026 RMK A01 T01790127  RH  072%=      5-min Rain = 0
KAM1 140910Z 04010KT 18/13 A3026 RMK A01 T01790127  RH  072%=      5-min Rain = 0
KAM1 140911Z 04010KT 18/13 A3026 RMK A01 T01800128  RH  072%=      5-min Rain = 0
KAM1 140912Z 04011KT 18/13 A3026 RMK A01 T01800128  RH  072%=      5-min Rain = 0
KAM1 140913Z 04009KT 18/13 A3026 RMK A01 T01800128  RH  072%=      5-min Rain = 0
KAM1 140914Z 04010KT 18/13 A3026 RMK A01 T01800128  RH  072%=      5-min Rain = 0
KAM1 140915Z 04011KT 18/13 A3026 RMK A01 T01800128  RH  071%=      5-min Rain = 0
KAM1 140916Z 04011KT 18/13 A3026 RMK A01 T01810128  RH  071%=      5-min Rain = 0
KAM1 140917Z 04011KT 18/13 A3026 RMK A01 T01810128  RH  071%=      5-min Rain = 0
KAM1 140918Z 04011KT 18/13 A3026 RMK A01 T01820128  RH  071%=      5-min Rain = 0
KAM1 140919Z 04010KT 18/13 A3026 RMK A01 T01820128  RH  070%=      5-min Rain = 0
KAM1 140920Z 05010KT 18/13 A3026 RMK A01 T01820127  RH  070%=      5-min Rain = 0
KAM1 140921Z 05008KT 18/13 A3026 RMK A01 T01830128  RH  070%=      5-min Rain = 0
KAM1 140922Z 05011KT 18/13 A3026 RMK A01 T01830128  RH  070%=      5-min Rain = 0
KAM1 140923Z 05009KT 18/13 A3026 RMK A01 T01830128  RH  070%=      5-min Rain = 0
KAM1 140924Z 05009KT 18/13 A3026 RMK A01 T01830128  RH  070%=      5-min Rain = 0
KAM1 140925Z 04010KT 18/13 A3025 RMK A01 T01830128  RH  070%=      5-min Rain = 0
KAM1 140926Z 05008KT 18/13 A3025 RMK A01 T01830128  RH  070%=      5-min Rain = 0
KAM1 140927Z 05010KT 18/13 A3025 RMK A01 T01830128  RH  070%=      5-min Rain = 0
KAM1 140928Z 05010KT 18/13 A3025 RMK A01 T01830127  RH  070%=      5-min Rain = 0
KAM1 140929Z 05010KT 18/13 A3025 RMK A01 T01830127  RH  070%=      5-min Rain = 0
KAM1 140930Z 05010KT 18/13 A3025 RMK A01 T01830127  RH  070%=      5-min Rain = 0
KAM1 140931Z 05010KT 18/13 A3025 RMK A01 T01830127  RH  070%=      5-min Rain = 0
KAM1 140932Z 05009KT 18/13 A3025 RMK A01 T01830126  RH  070%=      5-min Rain = 0
KAM1 140933Z 04009KT 18/13 A3025 RMK A01 T01830127  RH  070%=      5-min Rain = 0
KAM1 140934Z 05010KT 18/13 A3025 RMK A01 T01820126  RH  070%=      5-min Rain = 0
KAM1 140935Z 04010KT 18/13 A3025 RMK A01 T01820126  RH  070%=      5-min Rain = 0
KAM1 140936Z 04010KT 18/13 A3025 RMK A01 T01820126  RH  070%=      5-min Rain = 0
KAM1 140937Z 04011KT 18/13 A3025 RMK A01 T01820126  RH  070%=      5-min Rain = 0
KAM1 140938Z 04009KT 18/13 A3026 RMK A01 T01820126  RH  070%=      5-min Rain = 0
KAM1 140939Z 04011KT 18/13 A3026 RMK A01 T01820126  RH  070%=      5-min Rain = 0
KAM1 140940Z 03011KT 18/13 A3026 RMK A01 T01820126  RH  070%=      5-min Rain = 0
KAM1 140941Z 03010KT 18/13 A3026 RMK A01 T01820126  RH  070%=      5-min Rain = 0
KAM1 140942Z 03010KT 18/13 A3026 RMK A01 T01820126  RH  070%=      5-min Rain = 0
KAM1 140943Z 03011KT 18/13 A3026 RMK A01 T01820127  RH  070%=      5-min Rain = 0
KAM1 140944Z 03010KT 18/13 A3026 RMK A01 T01820126  RH  070%=      5-min Rain = 0
KAM1 140945Z 03009KT 18/13 A3026 RMK A01 T01820126  RH  070%=      5-min Rain = 0
KAM1 140946Z 03010KT 18/13 A3026 RMK A01 T01820126  RH  070%=      5-min Rain = 0
KAM1 140947Z 03009KT 18/13 A3026 RMK A01 T01820126  RH  070%=      5-min Rain = 0
KAM1 140948Z 03008KT 18/13 A3026 RMK A01 T01820126  RH  070%=      5-min Rain = 0
KAM1 140949Z 03009KT 18/13 A3026 RMK A01 T01820126  RH  070%=      5-min Rain = 0
KAM1 140950Z 03009KT 18/13 A3026 RMK A01 T01820127  RH  070%=      5-min Rain = 0
KAM1 140951Z 03009KT 18/13 A3026 RMK A01 T01820126  RH  070%=      5-min Rain = 0
KAM1 140952Z 03009KT 18/13 A3026 RMK A01 T01810127  RH  070%=      5-min Rain = 0
KAM1 140953Z 02009KT 18/13 A3026 RMK A01 T01810127  RH  070%=      5-min Rain = 0
KAM1 140954Z 02010KT 18/13 A3027 RMK A01 T01810126  RH  070%=      5-min Rain = 0
KAM1 140955Z 02008KT 18/13 A3027 RMK A01 T01810126  RH  070%=      5-min Rain = 0
KAM1 140956Z 02009KT 18/13 A3027 RMK A01 T01810126  RH  070%=      5-min Rain = 0
KAM1 140957Z 02009KT 18/13 A3027 RMK A01 T01810127  RH  070%=      5-min Rain = 0
KAM1 140958Z 01009KT 18/13 A3027 RMK A01 T01810126  RH  070%=      5-min Rain = 0
KAM1 140959Z 01009KT 18/13 A3027 RMK A01 T01810127  RH  070%=      5-min Rain = 0
KAM1 141000Z 01009KT 18/13 A3027 RMK A01 T01810126  RH  070%=      5-min Rain = 0
KAM1 141001Z 01009KT 18/13 A3027 RMK A01 T01810127  RH  070%=      5-min Rain = 0
KAM1 141002Z 02008KT 18/13 A3027 RMK A01 T01810127  RH  071%=      5-min Rain = 0
KAM1 141003Z 02010KT 18/13 A3027 RMK A01 T01810128  RH  071%=      5-min Rain = 0
KAM1 141004Z 02011KT 18/13 A3027 RMK A01 T01810127  RH  071%=      5-min Rain = 0
KAM1 141005Z 02009KT 18/13 A3027 RMK A01 T01810127  RH  071%=      5-min Rain = 0
KAM1 141006Z 02010KT 18/13 A3027 RMK A01 T01810127  RH  071%=      5-min Rain = 0
KAM1 141007Z 02010KT 18/13 A3027 RMK A01 T01820127  RH  070%=      5-min Rain = 0
KAM1 141008Z 02010KT 18/13 A3027 RMK A01 T01820127  RH  070%=      5-min Rain = 0
KAM1 141009Z 01009KT 18/13 A3027 RMK A01 T01830128  RH  070%=      5-min Rain = 0
KAM1 141010Z 02009KT 18/13 A3027 RMK A01 T01830128  RH  070%=      5-min Rain = 0
KAM1 141011Z 01008KT 18/13 A3027 RMK A01 T01820128  RH  071%=      5-min Rain = 0
KAM1 141012Z 02009KT 18/13 A3027 RMK A01 T01820128  RH  071%=      5-min Rain = 0
KAM1 141013Z 02009KT 18/13 A3027 RMK A01 T01820128  RH  071%=      5-min Rain = 0
KAM1 141014Z 02008KT 18/13 A3027 RMK A01 T01820129  RH  071%=      5-min Rain = 0
KAM1 141015Z 01011KT 18/13 A3027 RMK A01 T01810129  RH  071%=      5-min Rain = 0
KAM1 141016Z 01011KT 18/13 A3027 RMK A01 T01810129  RH  071%=      5-min Rain = 0
KAM1 141017Z 01011KT 18/13 A3027 RMK A01 T01810129  RH  071%=      5-min Rain = 0
KAM1 141018Z 01009KT 18/13 A3027 RMK A01 T01810129  RH  072%=      5-min Rain = 0
KAM1 141019Z 02009KT 18/13 A3027 RMK A01 T01810129  RH  072%=      5-min Rain = 0
KAM1 141020Z 01012KT 18/13 A3028 RMK A01 T01810129  RH  072%=      5-min Rain = 0
KAM1 141021Z 01013KT 18/13 A3028 RMK A01 T01800129  RH  072%=      5-min Rain = 0
KAM1 141022Z 01011KT 18/13 A3028 RMK A01 T01810129  RH  071%=      5-min Rain = 0
KAM1 141023Z 01009KT 18/13 A3028 RMK A01 T01810128  RH  071%=      5-min Rain = 0
KAM1 141024Z 01010KT 18/13 A3028 RMK A01 T01810129  RH  071%=      5-min Rain = 0
KAM1 141025Z 01011KT 18/13 A3028 RMK A01 T01810129  RH  072%=      5-min Rain = 0
KAM1 141026Z 00011KT 18/13 A3028 RMK A01 T01810130  RH  072%=      5-min Rain = 0
KAM1 141027Z 01009KT 18/13 A3028 RMK A01 T01810130  RH  072%=      5-min Rain = 0
KAM1 141028Z 01009KT 18/13 A3028 RMK A01 T01810130  RH  072%=      5-min Rain = 0
KAM1 141029Z 01010KT 18/13 A3028 RMK A01 T01810130  RH  072%=      5-min Rain = 0
KAM1 141030Z 01011KT 18/13 A3028 RMK A01 T01820131  RH  072%=      5-min Rain = 0
KAM1 141031Z 00010KT 18/13 A3028 RMK A01 T01810131  RH  072%=      5-min Rain = 0
KAM1 141032Z 01010KT 18/13 A3028 RMK A01 T01810131  RH  072%=      5-min Rain = 0
KAM1 141033Z 01010KT 18/13 A3027 RMK A01 T01810131  RH  072%=      5-min Rain = 0
KAM1 141034Z 01010KT 18/13 A3027 RMK A01 T01810130  RH  072%=      5-min Rain = 0
KAM1 141035Z 01010KT 18/13 A3028 RMK A01 T01810130  RH  072%=      5-min Rain = 0
KAM1 141036Z 01013KT 18/13 A3029 RMK A01 T01810130  RH  072%=      5-min Rain = 0
KAM1 141037Z 01013KT 18/13 A3029 RMK A01 T01810131  RH  073%=      5-min Rain = 0
KAM1 141038Z 01013KT 18/13 A3029 RMK A01 T01810131  RH  073%=      5-min Rain = 0
KAM1 141039Z 01010KT 18/13 A3028 RMK A01 T01810131  RH  073%=      5-min Rain = 0
KAM1 141040Z 01014KT 18/13 A303 RMK A01 T01810131  RH  073%=      5-min Rain = 0
KAM1 141041Z 01017G24KT 18/13 A303 RMK A01 T01800131  RH  073%=      5-min Rain = 0
KAM1 141042Z 01011G17KT 18/13 A3029 RMK A01 T01800130  RH  072%=      5-min Rain = 0
KAM1 141043Z 36011KT 18/13 A3029 RMK A01 T01810130  RH  072%=      5-min Rain = 0
KAM1 141044Z 01010KT 18/13 A3029 RMK A01 T01810130  RH  072%=      5-min Rain = 0
KAM1 141045Z 01012KT 18/13 A3029 RMK A01 T01810131  RH  072%=      5-min Rain = 0
KAM1 141046Z 01014KT 18/13 A303 RMK A01 T01810131  RH  073%=      5-min Rain = 0
KAM1 141047Z 00013KT 18/13 A3029 RMK A01 T01810131  RH  073%=      5-min Rain = 0
KAM1 141048Z 01013KT 18/13 A3029 RMK A01 T01810131  RH  073%=      5-min Rain = 0
KAM1 141049Z 01012KT 18/13 A3028 RMK A01 T01810130  RH  072%=      5-min Rain = 0
KAM1 141050Z 02012KT 18/13 A3028 RMK A01 T01800130  RH  072%=      5-min Rain = 0
KAM1 141051Z 02015KT 18/13 A3029 RMK A01 T01810130  RH  072%=      5-min Rain = 0
KAM1 141052Z 03013KT 18/13 A3028 RMK A01 T01800130  RH  072%=      5-min Rain = 0
KAM1 141053Z 03013KT 18/13 A3028 RMK A01 T01800130  RH  072%=      5-min Rain = 0
KAM1 141054Z 02014KT 18/13 A3028 RMK A01 T01800130  RH  072%=      5-min Rain = 0
KAM1 141055Z 03014KT 18/13 A3028 RMK A01 T01800130  RH  072%=      5-min Rain = 0
KAM1 141056Z 03010KT 18/13 A3027 RMK A01 T01810130  RH  072%=      5-min Rain = 0
KAM1 141057Z 03012KT 18/13 A3027 RMK A01 T01810130  RH  072%=      5-min Rain = 0
KAM1 141058Z 03013KT 18/13 A3027 RMK A01 T01810130  RH  072%=      5-min Rain = 0
KAM1 141059Z 03014KT 18/13 A3028 RMK A01 T01810130  RH  072%=      5-min Rain = 0
KAM1 141100Z 04013G18KT 18/13 A3027 RMK A01 T01810130  RH  072%=      5-min Rain = 0
KAM1 141101Z 04014KT 18/13 A3027 RMK A01 T01810130  RH  072%=      5-min Rain = 0
KAM1 141102Z 04013KT 18/13 A3027 RMK A01 T01810130  RH  072%=      5-min Rain = 0
KAM1 141103Z 04014KT 18/13 A3027 RMK A01 T01810130  RH  072%=      5-min Rain = 0
KAM1 141104Z 03015KT 18/13 A3027 RMK A01 T01810130  RH  072%=      5-min Rain = 0
KAM1 141105Z 03012KT 18/13 A3027 RMK A01 T01810130  RH  072%=      5-min Rain = 0
KAM1 141106Z 02012KT 18/13 A3028 RMK A01 T01820130  RH  072%=      5-min Rain = 0
KAM1 141107Z 02013KT 18/13 A3028 RMK A01 T01820130  RH  072%=      5-min Rain = 0
KAM1 141108Z 01010KT 18/13 A3027 RMK A01 T01820131  RH  072%=      5-min Rain = 0
KAM1 141109Z 01010KT 18/13 A3027 RMK A01 T01810132  RH  073%=      5-min Rain = 0
KAM1 141110Z 01010KT 18/13 A3027 RMK A01 T01810132  RH  073%=      5-min Rain = 0
KAM1 141111Z 00009KT 18/13 A3027 RMK A01 T01800131  RH  073%=      5-min Rain = 0
KAM1 141112Z 00010KT 18/13 A3027 RMK A01 T01800132  RH  073%=      5-min Rain = 0
KAM1 141113Z 35009KT 18/13 A3027 RMK A01 T01790132  RH  074%=      5-min Rain = 0
KAM1 141114Z 35010KT 18/13 A3027 RMK A01 T01790132  RH  074%=      5-min Rain = 0
KAM1 141115Z 35009KT 18/13 A3028 RMK A01 T01790132  RH  074%=      5-min Rain = 0
KAM1 141116Z 35009KT 18/13 A3028 RMK A01 T01790132  RH  074%=      5-min Rain = 0
KAM1 141117Z 35009KT 18/13 A3028 RMK A01 T01790133  RH  074%=      5-min Rain = 0
KAM1 141118Z 35009KT 18/13 A3028 RMK A01 T01790133  RH  075%=      5-min Rain = 0
KAM1 141119Z 35010KT 18/13 A3028 RMK A01 T01790133  RH  075%=      5-min Rain = 0
KAM1 141120Z 00010KT 18/13 A3028 RMK A01 T01790134  RH  075%=      5-min Rain = 0
KAM1 141121Z 35009KT 18/14 A3028 RMK A01 T01790135  RH  075%=      5-min Rain = 0
KAM1 141122Z 00009KT 18/14 A3027 RMK A01 T01780135  RH  076%=      5-min Rain = 0
KAM1 141123Z 00010KT 18/14 A3027 RMK A01 T01780135  RH  076%=      5-min Rain = 0
KAM1 141124Z 00008KT 18/14 A3027 RMK A01 T01780135  RH  076%=      5-min Rain = 0
KAM1 141125Z 36008KT 18/14 A3027 RMK A01 T01770135  RH  076%=      5-min Rain = 0
KAM1 141126Z 36009KT 18/14 A3027 RMK A01 T01770136  RH  077%=      5-min Rain = 0
KAM1 141127Z 00007KT 18/14 A3027 RMK A01 T01770136  RH  077%=      5-min Rain = 0
KAM1 141128Z 00008KT 18/14 A3027 RMK A01 T01770136  RH  077%=      5-min Rain = 0
KAM1 141129Z 01008KT 18/14 A3027 RMK A01 T01770136  RH  077%=      5-min Rain = 0
KAM1 141130Z 01008KT 18/14 A3027 RMK A01 T01770136  RH  077%=      5-min Rain = 0
KAM1 141131Z 01008KT 18/14 A3027 RMK A01 T01770138  RH  078%=      5-min Rain = 0
KAM1 141132Z 01009KT 18/14 A3027 RMK A01 T01770138  RH  078%=      5-min Rain = 0
KAM1 141133Z 02009KT 18/14 A3028 RMK A01 T01770138  RH  078%=      5-min Rain = 0
KAM1 141134Z 02008KT 18/14 A3028 RMK A01 T01760138  RH  078%=      5-min Rain = 0
KAM1 141135Z 01007KT 18/14 A3028 RMK A01 T01760139  RH  079%=      5-min Rain = 0
KAM1 141136Z 01007KT 18/14 A3028 RMK A01 T01750140  RH  080%=      5-min Rain = 0
KAM1 141137Z 02006KT 18/14 A3028 RMK A01 T01750140  RH  080%=      5-min Rain = 0
KAM1 141138Z 02006KT 18/14 A3028 RMK A01 T01750139  RH  080%=      5-min Rain = 0
KAM1 141139Z 03006KT 18/14 A3027 RMK A01 T01750140  RH  080%=      5-min Rain = 0
KAM1 141140Z 03005KT 18/14 A3027 RMK A01 T01750139  RH  079%=      5-min Rain = 0
KAM1 141141Z 04006KT 18/14 A3027 RMK A01 T01750140  RH  080%=      5-min Rain = 0
KAM1 141142Z 04005KT 18/14 A3027 RMK A01 T01750140  RH  080%=      5-min Rain = 0
KAM1 141143Z 04006KT 18/14 A3027 RMK A01 T01750140  RH  080%=      5-min Rain = 0
KAM1 141144Z 05005KT 18/14 A3027 RMK A01 T01750139  RH  080%=      5-min Rain = 0
KAM1 141145Z 04003KT 18/14 A3027 RMK A01 T01750140  RH  080%=      5-min Rain = 0
KAM1 141146Z 03004KT 18/14 A3027 RMK A01 T01750140  RH  080%=      5-min Rain = 0
KAM1 141147Z 04003KT 18/14 A3027 RMK A01 T01750141  RH  080%=      5-min Rain = 0
KAM1 141148Z 04003KT 18/14 A3027 RMK A01 T01750142  RH  081%=      5-min Rain = 0
KAM1 141149Z 04003KT 18/14 A3027 RMK A01 T01750142  RH  081%=      5-min Rain = 0
KAM1 141150Z 04003KT 18/14 A3027 RMK A01 T01750142  RH  081%=      5-min Rain = 0
KAM1 141151Z 03002KT 18/14 A3027 RMK A01 T01750141  RH  080%=      5-min Rain = 0
KAM1 141152Z 03003KT 18/14 A3027 RMK A01 T01750141  RH  080%=      5-min Rain = 0
KAM1 141153Z 03003KT 18/14 A3027 RMK A01 T01750141  RH  080%=      5-min Rain = 0
KAM1 141154Z 03003KT 18/14 A3027 RMK A01 T01750142  RH  080%=      5-min Rain = 0
KAM1 141155Z 03004KT 18/14 A3027 RMK A01 T01760141  RH  080%=      5-min Rain = 0
KAM1 141156Z 03004KT 18/14 A3027 RMK A01 T01760140  RH  079%=      5-min Rain = 0
KAM1 141157Z 03004KT 18/14 A3027 RMK A01 T01760140  RH  080%=      5-min Rain = 0
KAM1 141158Z 03004KT 18/14 A3027 RMK A01 T01760141  RH  080%=      5-min Rain = 0
KAM1 141159Z 03003KT 18/14 A3027 RMK A01 T01760140  RH  079%=      5-min Rain = 0
KAM1 141200Z 04003KT 18/14 A3027 RMK A01 T01760141  RH  080%=      5-min Rain = 0
KAM1 141201Z 04004KT 18/14 A3027 RMK A01 T01760141  RH  080%=      5-min Rain = 0
KAM1 141202Z 03004KT 18/14 A3028 RMK A01 T01760141  RH  080%=      5-min Rain = 0
KAM1 141203Z 04004KT 18/14 A3028 RMK A01 T01760141  RH  080%=      5-min Rain = 0
KAM1 141204Z 03004KT 18/14 A3028 RMK A01 T01760142  RH  080%=      5-min Rain = 0
KAM1 141205Z 03005KT 18/14 A3028 RMK A01 T01760141  RH  080%=      5-min Rain = 0
KAM1 141206Z 04004KT 18/14 A3028 RMK A01 T01770139  RH  079%=      5-min Rain = 0
KAM1 141207Z 03006KT 18/14 A3028 RMK A01 T01780141  RH  079%=      5-min Rain = 0
KAM1 141208Z 04005KT 18/14 A3028 RMK A01 T01780141  RH  079%=      5-min Rain = 0
KAM1 141209Z 03005KT 18/14 A3028 RMK A01 T01780142  RH  079%=      5-min Rain = 0
KAM1 141210Z 03005KT 18/14 A3028 RMK A01 T01780141  RH  079%=      5-min Rain = 0
KAM1 141211Z 03005KT 18/14 A3028 RMK A01 T01780140  RH  078%=      5-min Rain = 0
KAM1 141212Z 02005KT 18/14 A3028 RMK A01 T01780141  RH  079%=      5-min Rain = 0
KAM1 141213Z 02005KT 18/14 A3028 RMK A01 T01780140  RH  078%=      5-min Rain = 0
KAM1 141214Z 02005KT 18/14 A3028 RMK A01 T01790140  RH  078%=      5-min Rain = 0
KAM1 141215Z 01006KT 18/14 A3028 RMK A01 T01790138  RH  077%=      5-min Rain = 0
KAM1 141216Z 01005KT 18/14 A3028 RMK A01 T01810137  RH  076%=      5-min Rain = 0
KAM1 141217Z 00005KT 18/14 A3028 RMK A01 T01820137  RH  075%=      5-min Rain = 0
KAM1 141218Z 35007KT 18/13 A3028 RMK A01 T01840134  RH  073%=      5-min Rain = 0
KAM1 141219Z 35007KT 19/13 A3028 RMK A01 T01850132  RH  071%=      5-min Rain = 0
KAM1 141220Z 35008KT 19/13 A3028 RMK A01 T01880131  RH  070%=      5-min Rain = 0
KAM1 141221Z 34009KT 19/13 A3028 RMK A01 T01900131  RH  069%=      5-min Rain = 0
KAM1 141222Z 34009KT 19/13 A3029 RMK A01 T01910130  RH  068%=      5-min Rain = 0
KAM1 141223Z 34010KT 19/13 A3029 RMK A01 T01910130  RH  067%=      5-min Rain = 0
KAM1 141224Z 34009KT 19/13 A3029 RMK A01 T01920130  RH  067%=      5-min Rain = 0
KAM1 141225Z 34008KT 19/13 A3029 RMK A01 T01920130  RH  067%=      5-min Rain = 0
KAM1 141226Z 34007KT 19/13 A3029 RMK A01 T01910130  RH  068%=      5-min Rain = 0
KAM1 141227Z 34006KT 19/13 A3029 RMK A01 T01910130  RH  068%=      5-min Rain = 0
KAM1 141228Z 34006KT 19/13 A3029 RMK A01 T01900130  RH  068%=      5-min Rain = 0
KAM1 141229Z 34008KT 19/13 A3029 RMK A01 T01900130  RH  068%=      5-min Rain = 0
KAM1 141230Z 34009KT 19/13 A3029 RMK A01 T01900130  RH  068%=      5-min Rain = 0
KAM1 141231Z 34007KT 19/13 A3028 RMK A01 T01900129  RH  068%=      5-min Rain = 0
KAM1 141232Z 34005KT 19/13 A3028 RMK A01 T01900129  RH  068%=      5-min Rain = 0
KAM1 141233Z 34005KT 19/13 A3028 RMK A01 T01900129  RH  068%=      5-min Rain = 0
KAM1 141234Z 35007KT 19/13 A3028 RMK A01 T01890130  RH  068%=      5-min Rain = 0
KAM1 141235Z 35007KT 19/13 A3028 RMK A01 T01890129  RH  068%=      5-min Rain = 0
KAM1 141236Z 35007KT 19/13 A3028 RMK A01 T01890130  RH  068%=      5-min Rain = 0
KAM1 141237Z 36006KT 19/13 A3028 RMK A01 T01890130  RH  069%=      5-min Rain = 0
KAM1 141238Z 35008KT 19/13 A3028 RMK A01 T01880130  RH  069%=      5-min Rain = 0
KAM1 141239Z 35007KT 19/13 A3028 RMK A01 T01880130  RH  069%=      5-min Rain = 0
KAM1 141240Z 34006KT 19/13 A3028 RMK A01 T01880131  RH  069%=      5-min Rain = 0
KAM1 141241Z 34007KT 19/13 A3028 RMK A01 T01880131  RH  069%=      5-min Rain = 0
KAM1 141242Z 34007KT 19/13 A3028 RMK A01 T01880131  RH  069%=      5-min Rain = 0
KAM1 141243Z 34010KT 19/13 A3028 RMK A01 T01880131  RH  069%=      5-min Rain = 0
KAM1 141244Z 34011KT 19/13 A3028 RMK A01 T01880131  RH  069%=      5-min Rain = 0
KAM1 141245Z 34011KT 19/13 A3028 RMK A01 T01880130  RH  069%=      5-min Rain = 0
KAM1 141246Z 35009KT 19/13 A3028 RMK A01 T01880131  RH  069%=      5-min Rain = 0
KAM1 141247Z 34013KT 19/13 A3028 RMK A01 T01890132  RH  069%=      5-min Rain = 0
KAM1 141248Z 34013KT 19/13 A3028 RMK A01 T01880131  RH  069%=      5-min Rain = 0
KAM1 141249Z 34014KT 19/13 A3028 RMK A01 T01900131  RH  069%=      5-min Rain = 0
KAM1 141250Z 34013KT 19/13 A3028 RMK A01 T01910131  RH  068%=      5-min Rain = 0
KAM1 141251Z 34013KT 19/13 A3028 RMK A01 T01920131  RH  068%=      5-min Rain = 0
KAM1 141252Z 34012KT 19/13 A3028 RMK A01 T01920130  RH  067%=      5-min Rain = 0
KAM1 141253Z 35012KT 19/13 A3029 RMK A01 T01920131  RH  067%=      5-min Rain = 0
KAM1 141254Z 35013G19KT 19/13 A3029 RMK A01 T01920131  RH  067%=      5-min Rain = 0
KAM1 141255Z 35013KT 19/13 A3028 RMK A01 T01930131  RH  067%=      5-min Rain = 0
KAM1 141256Z 35013KT 19/13 A3028 RMK A01 T01940131  RH  067%=      5-min Rain = 0
KAM1 141257Z 34013KT 20/13 A3028 RMK A01 T01950131  RH  067%=      5-min Rain = 0
KAM1 141258Z 34013KT 20/13 A3028 RMK A01 T01950132  RH  067%=      5-min Rain = 0
KAM1 141259Z 35011KT 20/13 A3028 RMK A01 T01960132  RH  067%=      5-min Rain = 0
KAM1 141300Z 35011KT 20/13 A3028 RMK A01 T01960133  RH  067%=      5-min Rain = 0
KAM1 141301Z 35010KT 20/13 A3028 RMK A01 T01960133  RH  067%=      5-min Rain = 0
KAM1 141302Z 34009KT 20/13 A3028 RMK A01 T01960134  RH  067%=      5-min Rain = 0
KAM1 141303Z 34011KT 20/13 A3028 RMK A01 T01960134  RH  067%=      5-min Rain = 0
KAM1 141304Z 34010KT 20/13 A3028 RMK A01 T01960134  RH  067%=      5-min Rain = 0
KAM1 141305Z 33009KT 20/13 A3028 RMK A01 T01960134  RH  067%=      5-min Rain = 0
KAM1 141306Z 33009KT 20/13 A3028 RMK A01 T01960134  RH  067%=      5-min Rain = 0
KAM1 141307Z 33008KT 20/14 A3028 RMK A01 T01960135  RH  068%=      5-min Rain = 0
KAM1 141308Z 32008KT 20/14 A3028 RMK A01 T01960136  RH  068%=      5-min Rain = 0
KAM1 141309Z 33008KT 20/14 A3028 RMK A01 T01950135  RH  068%=      5-min Rain = 0
KAM1 141310Z 33008KT 20/14 A3028 RMK A01 T01950135  RH  068%=      5-min Rain = 0
KAM1 141311Z 34007KT 20/13 A3028 RMK A01 T01950134  RH  068%=      5-min Rain = 0
KAM1 141312Z 33007KT 20/13 A3028 RMK A01 T01950134  RH  068%=      5-min Rain = 0
KAM1 141313Z 33008KT 20/13 A3028 RMK A01 T01950134  RH  068%=      5-min Rain = 0
KAM1 141314Z 34008KT 19/13 A3028 RMK A01 T01940134  RH  068%=      5-min Rain = 0
KAM1 141315Z 33009KT 19/13 A3028 RMK A01 T01940134  RH  068%=      5-min Rain = 0
KAM1 141316Z 33008KT 19/13 A3028 RMK A01 T01940133  RH  068%=      5-min Rain = 0
KAM1 141317Z 33007KT 19/13 A3028 RMK A01 T01940133  RH  068%=      5-min Rain = 0
KAM1 141318Z 33006KT 19/13 A3028 RMK A01 T01940133  RH  068%=      5-min Rain = 0
KAM1 141319Z 32008KT 19/13 A3028 RMK A01 T01940134  RH  068%=      5-min Rain = 0
KAM1 141320Z 32009KT 19/13 A3028 RMK A01 T01940134  RH  068%=      5-min Rain = 0
KAM1 141321Z 31010KT 19/13 A3028 RMK A01 T01930134  RH  069%=      5-min Rain = 0
KAM1 141322Z 31009KT 19/14 A3028 RMK A01 T01920135  RH  069%=      5-min Rain = 0
KAM1 141323Z 31009KT 19/14 A3028 RMK A01 T01910135  RH  070%=      5-min Rain = 0
KAM1 141324Z 31007KT 19/14 A3028 RMK A01 T01900135  RH  070%=      5-min Rain = 0
KAM1 141325Z 31006KT 19/14 A3028 RMK A01 T01890136  RH  071%=      5-min Rain = 0
KAM1 141326Z 32007KT 19/14 A3028 RMK A01 T01890136  RH  071%=      5-min Rain = 0
KAM1 141327Z 32007KT 19/14 A3027 RMK A01 T01880136  RH  072%=      5-min Rain = 0
KAM1 141328Z 32008KT 19/14 A3027 RMK A01 T01880135  RH  071%=      5-min Rain = 0
KAM1 141329Z 32007KT 19/14 A3027 RMK A01 T01880135  RH  071%=      5-min Rain = 0
KAM1 141330Z 31007KT 19/14 A3027 RMK A01 T01880135  RH  071%=      5-min Rain = 0
KAM1 141331Z 32006KT 19/14 A3027 RMK A01 T01880135  RH  071%=      5-min Rain = 0
KAM1 141332Z 30006KT 19/14 A3027 RMK A01 T01880135  RH  071%=      5-min Rain = 0
KAM1 141333Z 31004KT 19/14 A3026 RMK A01 T01880135  RH  071%=      5-min Rain = 0
KAM1 141334Z 31003KT 19/14 A3026 RMK A01 T01880136  RH  072%=      5-min Rain = 0
KAM1 141335Z 30004KT 19/14 A3026 RMK A01 T01880136  RH  072%=      5-min Rain = 0
KAM1 141336Z 32002KT 19/14 A3026 RMK A01 T01870135  RH  072%=      5-min Rain = 0
KAM1 141337Z 32000KT 19/14 A3025 RMK A01 T01880136  RH  072%=      5-min Rain = 0
KAM1 141338Z 11000KT 19/14 A3024 RMK A01 T01880136  RH  072%=      5-min Rain = 0
KAM1 141339Z 11001KT 19/14 A3024 RMK A01 T01880136  RH  072%=      5-min Rain = 0
KAM1 141340Z 11002KT 19/14 A3023 RMK A01 T01880137  RH  072%=      5-min Rain = 0
KAM1 141341Z 11002KT 19/14 A3023 RMK A01 T01870136  RH  072%=      5-min Rain = 0
KAM1 141342Z 11002KT 19/14 A3023 RMK A01 T01870136  RH  072%=      5-min Rain = 0
KAM1 141343Z 07002KT 19/14 A3024 RMK A01 T01870137  RH  073%=      5-min Rain = 0
KAM1 141344Z 05000KT 19/14 A3024 RMK A01 T01870137  RH  073%=      5-min Rain = 0
KAM1 141345Z 34001KT 19/14 A3024 RMK A01 T01870137  RH  072%=      5-min Rain = 0
KAM1 141346Z 32003KT 19/14 A3024 RMK A01 T01880138  RH  073%=      5-min Rain = 0
KAM1 141347Z 32004KT 19/14 A3025 RMK A01 T01880139  RH  073%=      5-min Rain = 0
KAM1 141348Z 31004KT 19/14 A3025 RMK A01 T01880139  RH  073%=      5-min Rain = 0
KAM1 141349Z 30005KT 19/14 A3025 RMK A01 T01880139  RH  073%=      5-min Rain = 0
KAM1 141350Z 30005KT 19/14 A3025 RMK A01 T01880139  RH  073%=      5-min Rain = 0
KAM1 141351Z 29006KT 19/14 A3025 RMK A01 T01880140  RH  074%=      5-min Rain = 0
KAM1 141352Z 29006KT 19/14 A3026 RMK A01 T01880140  RH  073%=      5-min Rain = 0
KAM1 141353Z 28006KT 19/14 A3026 RMK A01 T01880140  RH  073%=      5-min Rain = 0
KAM1 141354Z 28007KT 19/14 A3026 RMK A01 T01890140  RH  073%=      5-min Rain = 0
KAM1 141355Z 28007KT 19/14 A3026 RMK A01 T01890139  RH  072%=      5-min Rain = 0
KAM1 141356Z 28006KT 19/14 A3026 RMK A01 T01900139  RH  072%=      5-min Rain = 0
KAM1 141357Z 26005KT 19/14 A3025 RMK A01 T01910139  RH  072%=      5-min Rain = 0
KAM1 141358Z 26006KT 19/14 A3025 RMK A01 T01920139  RH  072%=      5-min Rain = 0
KAM1 141359Z 26006KT 19/14 A3025 RMK A01 T01920140  RH  072%=      5-min Rain = 0
KAM1 141400Z 25005KT 19/14 A3025 RMK A01 T01930141  RH  072%=      5-min Rain = 0
KAM1 141401Z 25005KT 19/14 A3025 RMK A01 T01930141  RH  072%=      5-min Rain = 0
KAM1 141402Z 24005KT 19/14 A3025 RMK A01 T01930141  RH  072%=      5-min Rain = 0
KAM1 141403Z 24004KT 19/14 A3025 RMK A01 T01940142  RH  072%=      5-min Rain = 0
KAM1 141404Z 23004KT 19/14 A3025 RMK A01 T01940143  RH  072%=      5-min Rain = 0
KAM1 141405Z 22004KT 20/14 A3025 RMK A01 T01950144  RH  072%=      5-min Rain = 0
KAM1 141406Z 21005KT 20/14 A3025 RMK A01 T01950144  RH  072%=      5-min Rain = 0
KAM1 141407Z 20004KT 20/14 A3025 RMK A01 T01960144  RH  072%=      5-min Rain = 0
KAM1 141408Z 21004KT 20/14 A3025 RMK A01 T01970144  RH  071%=      5-min Rain = 0
KAM1 141409Z 21004KT 20/14 A3025 RMK A01 T01980143  RH  071%=      5-min Rain = 0
KAM1 141410Z 23003KT 20/14 A3025 RMK A01 T01990143  RH  070%=      5-min Rain = 0
KAM1 141411Z 23004KT 20/14 A3025 RMK A01 T02000143  RH  070%=      5-min Rain = 0
KAM1 141412Z 24006KT 20/14 A3025 RMK A01 T02010143  RH  069%=      5-min Rain = 0
KAM1 141413Z 24007KT 20/14 A3025 RMK A01 T02020142  RH  069%=      5-min Rain = 0
KAM1 141414Z 25006KT 20/14 A3026 RMK A01 T02030141  RH  068%=      5-min Rain = 0
KAM1 141415Z 25007KT 20/14 A3026 RMK A01 T02040141  RH  067%=      5-min Rain = 0
KAM1 141416Z 25007KT 20/14 A3026 RMK A01 T02040141  RH  067%=      5-min Rain = 0
KAM1 141417Z 25008KT 21/14 A3026 RMK A01 T02050141  RH  066%=      5-min Rain = 0
KAM1 141418Z 25007KT 21/14 A3026 RMK A01 T02060139  RH  065%=      5-min Rain = 0
KAM1 141419Z 25007KT 21/14 A3026 RMK A01 T02070140  RH  065%=      5-min Rain = 0
KAM1 141420Z 24005KT 21/14 A3026 RMK A01 T02070140  RH  065%=      5-min Rain = 0
KAM1 141421Z 24005KT 21/14 A3026 RMK A01 T02080141  RH  066%=      5-min Rain = 0
KAM1 141422Z 24007KT 21/14 A3026 RMK A01 T02080140  RH  065%=      5-min Rain = 0
KAM1 141423Z 23009KT 21/14 A3026 RMK A01 T02090141  RH  065%=      5-min Rain = 0
KAM1 141424Z 23012KT 21/14 A3026 RMK A01 T02100141  RH  065%=      5-min Rain = 0
KAM1 141425Z 23011KT 21/14 A3026 RMK A01 T02090141  RH  065%=      5-min Rain = 0
KAM1 141426Z 23009KT 21/14 A3026 RMK A01 T02080142  RH  066%=      5-min Rain = 0
KAM1 141427Z 23008KT 21/14 A3026 RMK A01 T02070142  RH  066%=      5-min Rain = 0
KAM1 141428Z 24007KT 21/14 A3026 RMK A01 T02070142  RH  066%=      5-min Rain = 0
KAM1 141429Z 25007KT 21/14 A3026 RMK A01 T02070143  RH  067%=      5-min Rain = 0
KAM1 141430Z 25007KT 21/14 A3026 RMK A01 T02060142  RH  066%=      5-min Rain = 0
KAM1 141431Z 25006KT 21/14 A3026 RMK A01 T02070142  RH  066%=      5-min Rain = 0
KAM1 141432Z 25006KT 21/14 A3026 RMK A01 T02070141  RH  066%=      5-min Rain = 0
KAM1 141433Z 26006KT 21/14 A3026 RMK A01 T02070141  RH  066%=      5-min Rain = 0
KAM1 141434Z 26007KT 21/14 A3026 RMK A01 T02080140  RH  065%=      5-min Rain = 0
KAM1 141435Z 27006KT 21/14 A3026 RMK A01 T02100140  RH  065%=      5-min Rain = 0
KAM1 141436Z 27005KT 21/14 A3026 RMK A01 T02110142  RH  065%=      5-min Rain = 0
KAM1 141437Z 26006KT 21/14 A3026 RMK A01 T02120140  RH  064%=      5-min Rain = 0
KAM1 141438Z 26006KT 21/14 A3026 RMK A01 T02130141  RH  063%=      5-min Rain = 0
KAM1 141439Z 25005KT 21/14 A3026 RMK A01 T02140141  RH  063%=      5-min Rain = 0
KAM1 141440Z 25005KT 22/14 A3025 RMK A01 T02150142  RH  063%=      5-min Rain = 0
KAM1 141441Z 25005KT 22/14 A3025 RMK A01 T02160141  RH  062%=      5-min Rain = 0
KAM1 141442Z 27003KT 22/14 A3025 RMK A01 T02170140  RH  062%=      5-min Rain = 0
KAM1 141443Z 29003KT 22/14 A3025 RMK A01 T02170138  RH  061%=      5-min Rain = 0
KAM1 141444Z 30002KT 22/14 A3025 RMK A01 T02170137  RH  060%=      5-min Rain = 0
KAM1 141445Z 30002KT 22/14 A3025 RMK A01 T02170140  RH  061%=      5-min Rain = 0
KAM1 141446Z 28001KT 22/14 A3025 RMK A01 T02180139  RH  061%=      5-min Rain = 0
KAM1 141447Z 29002KT 22/14 A3025 RMK A01 T02180139  RH  061%=      5-min Rain = 0
KAM1 141448Z 29002KT 22/14 A3025 RMK A01 T02190137  RH  060%=      5-min Rain = 0
KAM1 141449Z 30002KT 22/14 A3025 RMK A01 T02190136  RH  059%=      5-min Rain = 0
KAM1 141450Z 28002KT 22/14 A3025 RMK A01 T02190137  RH  060%=      5-min Rain = 0
KAM1 141451Z 27002KT 22/14 A3025 RMK A01 T02190136  RH  059%=      5-min Rain = 0
KAM1 141452Z 30001KT 22/14 A3025 RMK A01 T02200138  RH  059%=      5-min Rain = 0
KAM1 141453Z 30000KT 22/14 A3025 RMK A01 T02210138  RH  059%=      5-min Rain = 0
KAM1 141454Z 29000KT 22/14 A3025 RMK A01 T02220139  RH  059%=      5-min Rain = 0
KAM1 141455Z 22001KT 22/14 A3025 RMK A01 T02230140  RH  059%=      5-min Rain = 0
KAM1 141456Z 20000KT 22/14 A3025 RMK A01 T02240137  RH  058%=      5-min Rain = 0
KAM1 141457Z 00000KT 22/14 A3025 RMK A01 T02240137  RH  058%=      5-min Rain = 0
KAM1 141458Z 00000KT 23/14 A3025 RMK A01 T02250137  RH  058%=      5-min Rain = 0
KAM1 141459Z 00000KT 23/14 A3025 RMK A01 T02260140  RH  058%=      5-min Rain = 0
KAM1 141500Z 07000KT 23/14 A3025 RMK A01 T02270137  RH  057%=      5-min Rain = 0
KAM1 141501Z 06001KT 23/14 A3025 RMK A01 T02270137  RH  057%=      5-min Rain = 0
KAM1 141502Z 04001KT 23/14 A3025 RMK A01 T02270137  RH  057%=      5-min Rain = 0
KAM1 141503Z 01002KT 23/14 A3025 RMK A01 T02280137  RH  056%=      5-min Rain = 0
KAM1 141504Z 01001KT 23/14 A3025 RMK A01 T02280137  RH  056%=      5-min Rain = 0
KAM1 141505Z 02001KT 23/14 A3025 RMK A01 T02290137  RH  056%=      5-min Rain = 0
KAM1 141506Z 05001KT 23/14 A3025 RMK A01 T02290139  RH  057%=      5-min Rain = 0
KAM1 141507Z 04002KT 23/14 A3025 RMK A01 T02300138  RH  056%=      5-min Rain = 0
KAM1 141508Z 08003KT 23/14 A3025 RMK A01 T02300140  RH  057%=      5-min Rain = 0
KAM1 141509Z 09005KT 23/14 A3025 RMK A01 T02320141  RH  057%=      5-min Rain = 0
KAM1 141510Z 10004KT 23/14 A3025 RMK A01 T02330141  RH  056%=      5-min Rain = 0
KAM1 141511Z 11002KT 23/14 A3025 RMK A01 T02330138  RH  055%=      5-min Rain = 0
KAM1 141512Z 12001KT 23/14 A3025 RMK A01 T02330137  RH  055%=      5-min Rain = 0
KAM1 141513Z 11001KT 23/14 A3025 RMK A01 T02330137  RH  055%=      5-min Rain = 0
KAM1 141514Z 08001KT 23/14 A3026 RMK A01 T02330138  RH  055%=      5-min Rain = 0
KAM1 141515Z 10002KT 23/14 A3026 RMK A01 T02330138  RH  055%=      5-min Rain = 0
KAM1 141516Z 11004KT 23/14 A3026 RMK A01 T02330139  RH  056%=      5-min Rain = 0
KAM1 141517Z 12006KT 23/14 A3026 RMK A01 T02330141  RH  056%=      5-min Rain = 0
KAM1 141518Z 12007KT 23/14 A3026 RMK A01 T02330141  RH  056%=      5-min Rain = 0
KAM1 141519Z 11008KT 23/14 A3026 RMK A01 T02310141  RH  057%=      5-min Rain = 0
KAM1 141520Z 11007KT 23/14 A3026 RMK A01 T02300141  RH  057%=      5-min Rain = 0
KAM1 141521Z 12005KT 23/14 A3026 RMK A01 T02290138  RH  056%=      5-min Rain = 0
KAM1 141522Z 10003KT 23/14 A3026 RMK A01 T02280136  RH  056%=      5-min Rain = 0
KAM1 141523Z 06002KT 23/14 A3026 RMK A01 T02270137  RH  057%=      5-min Rain = 0
KAM1 141524Z 09004KT 23/14 A3027 RMK A01 T02270136  RH  057%=      5-min Rain = 0
KAM1 141525Z 09005KT 23/14 A3027 RMK A01 T02270137  RH  057%=      5-min Rain = 0
KAM1 141526Z 09007KT 23/14 A3027 RMK A01 T02270137  RH  057%=      5-min Rain = 0
KAM1 141527Z 09009KT 23/14 A3028 RMK A01 T02280138  RH  057%=      5-min Rain = 0
KAM1 141528Z 08007KT 23/14 A3027 RMK A01 T02280138  RH  057%=      5-min Rain = 0
KAM1 141529Z 05005KT 23/14 A3027 RMK A01 T02290138  RH  056%=      5-min Rain = 0
KAM1 141530Z 03005KT 23/14 A3027 RMK A01 T02290138  RH  057%=      5-min Rain = 0
KAM1 141531Z 04004KT 23/14 A3027 RMK A01 T02300139  RH  056%=      5-min Rain = 0
KAM1 141532Z 06010G17KT 23/14 A3027 RMK A01 T02310139  RH  056%=      5-min Rain = 0
KAM1 141533Z 06012KT 23/14 A3028 RMK A01 T02340135  RH  054%=      5-min Rain = 0
KAM1 141534Z 08009KT 24/14 A3028 RMK A01 T02360137  RH  054%=      5-min Rain = 0
KAM1 141535Z 07007KT 24/14 A3028 RMK A01 T02360140  RH  055%=      5-min Rain = 0
KAM1 141536Z 05013G22KT 24/14 A3029 RMK A01 T02360141  RH  055%=      5-min Rain = 0
KAM1 141537Z 06016G22KT 24/14 A303 RMK A01 T02370138  RH  054%=      5-min Rain = 0
KAM1 141538Z 04014KT 24/14 A303 RMK A01 T02390139  RH  053%=      5-min Rain = 0
KAM1 141539Z 04011G17KT 24/14 A303 RMK A01 T02410142  RH  054%=      5-min Rain = 0
KAM1 141540Z 04013KT 24/15 A303 RMK A01 T02430147  RH  055%=      5-min Rain = 0
KAM1 141541Z 04016KT 25/15 A3031 RMK A01 T02450148  RH  055%=      5-min Rain = 0
KAM1 141542Z 04020KT 25/15 A3031 RMK A01 T02450147  RH  054%=      5-min Rain = 0
KAM1 141543Z 02014G19KT 24/14 A3031 RMK A01 T02420144  RH  054%=      5-min Rain = 0
KAM1 141544Z 02015KT 24/14 A3031 RMK A01 T02370140  RH  054%=      5-min Rain = 0
KAM1 141545Z 02014KT 23/14 A3031 RMK A01 T02340139  RH  055%=      5-min Rain = 0
KAM1 141546Z 02014G20KT 23/14 A303 RMK A01 T02310138  RH  056%=      5-min Rain = 0
KAM1 141547Z 02016KT 23/14 A3031 RMK A01 T02300138  RH  056%=      5-min Rain = 0
KAM1 141548Z 01013G20KT 23/14 A3031 RMK A01 T02290138  RH  057%=      5-min Rain = 0
KAM1 141549Z 01016KT 23/14 A3031 RMK A01 T02290139  RH  057%=      5-min Rain = 0
KAM1 141550Z 02016KT 23/14 A3031 RMK A01 T02290139  RH  057%=      5-min Rain = 0
KAM1 141551Z 01012KT 23/14 A3031 RMK A01 T02300141  RH  057%=      5-min Rain = 0
KAM1 141552Z 02013G18KT 23/14 A3031 RMK A01 T02330143  RH  057%=      5-min Rain = 0
KAM1 141553Z 02020KT 24/14 A3032 RMK A01 T02370139  RH  054%=      5-min Rain = 0
KAM1 141554Z 03019KT 24/13 A3032 RMK A01 T02370134  RH  052%=      5-min Rain = 0
KAM1 141555Z 03017KT 23/13 A3032 RMK A01 T02330131  RH  053%=      5-min Rain = 0
KAM1 141556Z 03014G19KT 23/13 A3032 RMK A01 T02310131  RH  053%=      5-min Rain = 0
KAM1 141557Z 03015KT 23/13 A3031 RMK A01 T02290130  RH  054%=      5-min Rain = 0
KAM1 141558Z 03013KT 23/13 A3031 RMK A01 T02280130  RH  054%=      5-min Rain = 0
KAM1 141559Z 03012KT 23/13 A3031 RMK A01 T02270130  RH  054%=      5-min Rain = 0
KAM1 141600Z 04014KT 23/13 A3031 RMK A01 T02270129  RH  054%=      5-min Rain = 0
KAM1 141601Z 04014KT 23/13 A3031 RMK A01 T02260129  RH  054%=      5-min Rain = 0
KAM1 141602Z 04015KT 23/13 A3031 RMK A01 T02250129  RH  055%=      5-min Rain = 0
KAM1 141603Z 04013KT 23/13 A3031 RMK A01 T02250130  RH  055%=      5-min Rain = 0
KAM1 141604Z 04015KT 23/13 A3031 RMK A01 T02250129  RH  055%=      5-min Rain = 0
KAM1 141605Z 03015KT 23/13 A3031 RMK A01 T02250129  RH  055%=      5-min Rain = 0
KAM1 141606Z 03013KT 23/13 A3031 RMK A01 T02260131  RH  055%=      5-min Rain = 0
KAM1 141607Z 03013KT 23/13 A3031 RMK A01 T02280132  RH  054%=      5-min Rain = 0
KAM1 141608Z 03012KT 23/13 A3031 RMK A01 T02310134  RH  054%=      5-min Rain = 0
KAM1 141609Z 03012KT 24/13 A3031 RMK A01 T02350134  RH  053%=      5-min Rain = 0
KAM1 141610Z 03012KT 24/14 A3031 RMK A01 T02380135  RH  053%=      5-min Rain = 0
KAM1 141611Z 04013KT 24/13 A3031 RMK A01 T02400134  RH  051%=      5-min Rain = 0
KAM1 141612Z 04015KT 24/13 A3031 RMK A01 T02420133  RH  051%=      5-min Rain = 0
KAM1 141613Z 04015G20KT 24/13 A3031 RMK A01 T02420131  RH  050%=      5-min Rain = 0
KAM1 141614Z 04016KT 24/13 A3031 RMK A01 T02430131  RH  050%=      5-min Rain = 0
KAM1 141615Z 04016G21KT 25/13 A3031 RMK A01 T02450132  RH  050%=      5-min Rain = 0
KAM1 141616Z 04017G22KT 25/13 A3031 RMK A01 T02470132  RH  049%=      5-min Rain = 0
KAM1 141617Z 04017KT 25/13 A3031 RMK A01 T02480131  RH  048%=      5-min Rain = 0
KAM1 141618Z 03019KT 25/13 A303 RMK A01 T02470130  RH  048%=      5-min Rain = 0
KAM1 141619Z 03017KT 25/13 A303 RMK A01 T02450131  RH  049%=      5-min Rain = 0
KAM1 141620Z 03013G18KT 25/13 A303 RMK A01 T02460132  RH  049%=      5-min Rain = 0
KAM1 141621Z 04014KT 25/13 A303 RMK A01 T02490133  RH  048%=      5-min Rain = 0
KAM1 141622Z 05015KT 25/13 A303 RMK A01 T02500131  RH  048%=      5-min Rain = 0
KAM1 141623Z 05014KT 25/13 A303 RMK A01 T02480131  RH  048%=      5-min Rain = 0
KAM1 141624Z 05013KT 25/13 A303 RMK A01 T02470132  RH  049%=      5-min Rain = 0
KAM1 141625Z 06015G21KT 25/13 A303 RMK A01 T02480133  RH  049%=      5-min Rain = 0
KAM1 141626Z 05015KT 25/13 A3031 RMK A01 T02500131  RH  048%=      5-min Rain = 0
KAM1 141627Z 06013KT 25/13 A3031 RMK A01 T02510131  RH  047%=      5-min Rain = 0
KAM1 141628Z 06013KT 25/13 A3031 RMK A01 T02510131  RH  047%=      5-min Rain = 0
KAM1 141629Z 06013KT 25/13 A3031 RMK A01 T02520131  RH  047%=      5-min Rain = 0
KAM1 141630Z 04016KT 25/13 A3031 RMK A01 T02520133  RH  048%=      5-min Rain = 0
KAM1 141631Z 04012KT 25/13 A3031 RMK A01 T02510131  RH  047%=      5-min Rain = 0
KAM1 141632Z 04012KT 25/13 A303 RMK A01 T02500133  RH  048%=      5-min Rain = 0
KAM1 141633Z 05016KT 25/13 A303 RMK A01 T02500130  RH  047%=      5-min Rain = 0
KAM1 141634Z 06014KT 25/13 A303 RMK A01 T02500129  RH  047%=      5-min Rain = 0
KAM1 141635Z 05013G21KT 25/13 A303 RMK A01 T02500129  RH  047%=      5-min Rain = 0
KAM1 141636Z 07015KT 25/13 A303 RMK A01 T02510132  RH  048%=      5-min Rain = 0
KAM1 141637Z 07014KT 25/13 A303 RMK A01 T02530131  RH  047%=      5-min Rain = 0
KAM1 141638Z 06012KT 25/13 A303 RMK A01 T02540129  RH  046%=      5-min Rain = 0
KAM1 141639Z 06014G22KT 25/13 A303 RMK A01 T02540132  RH  047%=      5-min Rain = 0
KAM1 141640Z 05016G22KT 26/13 A303 RMK A01 T02550130  RH  046%=      5-min Rain = 0
KAM1 141641Z 05013KT 25/13 A303 RMK A01 T02530130  RH  046%=      5-min Rain = 0
KAM1 141642Z 05014G21KT 25/13 A303 RMK A01 T02530131  RH  047%=      5-min Rain = 0
KAM1 141643Z 04013G19KT 25/13 A303 RMK A01 T02520133  RH  048%=      5-min Rain = 0
KAM1 141644Z 05012KT 26/14 A303 RMK A01 T02550136  RH  048%=      5-min Rain = 0
KAM1 141645Z 05014KT 26/14 A303 RMK A01 T02570136  RH  047%=      5-min Rain = 0
KAM1 141646Z 05013KT 26/14 A303 RMK A01 T02570135  RH  047%=      5-min Rain = 0
KAM1 141647Z 04013KT 26/13 A303 RMK A01 T02550133  RH  047%=      5-min Rain = 0
KAM1 141648Z 04010G15KT 25/13 A303 RMK A01 T02530134  RH  048%=      5-min Rain = 0
KAM1 141649Z 05015KT 26/14 A303 RMK A01 T02550135  RH  047%=      5-min Rain = 0
KAM1 141650Z 04013KT 26/14 A303 RMK A01 T02550135  RH  047%=      5-min Rain = 0
KAM1 141651Z 05013KT 26/13 A303 RMK A01 T02550134  RH  047%=      5-min Rain = 0
KAM1 141652Z 03013KT 26/13 A303 RMK A01 T02550134  RH  047%=      5-min Rain = 0
KAM1 141653Z 03012KT 25/13 A303 RMK A01 T02540134  RH  047%=      5-min Rain = 0
KAM1 141654Z 05012KT 25/13 A303 RMK A01 T02530134  RH  048%=      5-min Rain = 0
KAM1 141655Z 06009KT 25/13 A303 RMK A01 T02540134  RH  047%=      5-min Rain = 0
KAM1 141656Z 03009KT 25/14 A303 RMK A01 T02530135  RH  048%=      5-min Rain = 0
KAM1 141657Z 04012KT 25/13 A303 RMK A01 T02540133  RH  047%=      5-min Rain = 0
KAM1 141658Z 04011KT 25/13 A3031 RMK A01 T02520132  RH  047%=      5-min Rain = 0
KAM1 141659Z 05010KT 25/13 A3031 RMK A01 T02540133  RH  047%=      5-min Rain = 0
KAM1 141700Z 05012KT 26/13 A3031 RMK A01 T02580134  RH  046%=      5-min Rain = 0
KAM1 141701Z 06010KT 26/13 A3031 RMK A01 T02570134  RH  046%=      5-min Rain = 0
KAM1 141702Z 04009KT 26/13 A3031 RMK A01 T02550131  RH  046%=      5-min Rain = 0
KAM1 141703Z 03008KT 25/13 A3031 RMK A01 T02520132  RH  047%=      5-min Rain = 0
KAM1 141704Z 03010KT 25/13 A3031 RMK A01 T02520133  RH  048%=      5-min Rain = 0
KAM1 141705Z 05011KT 25/13 A3031 RMK A01 T02540134  RH  047%=      5-min Rain = 0
KAM1 141706Z 05008KT 25/13 A3031 RMK A01 T02540132  RH  047%=      5-min Rain = 0
KAM1 141707Z 05006KT 25/14 A303 RMK A01 T02520135  RH  048%=      5-min Rain = 0
KAM1 141708Z 04009KT 26/14 A303 RMK A01 T02550135  RH  048%=      5-min Rain = 0
KAM1 141709Z 03012KT 26/14 A303 RMK A01 T02580135  RH  046%=      5-min Rain = 0
KAM1 141710Z 03011KT 26/13 A303 RMK A01 T02600134  RH  046%=      5-min Rain = 0
KAM1 141711Z 03008KT 26/13 A303 RMK A01 T02600133  RH  045%=      5-min Rain = 0
KAM1 141712Z 04010KT 26/13 A303 RMK A01 T02590132  RH  045%=      5-min Rain = 0
KAM1 141713Z 04010KT 26/13 A303 RMK A01 T02560130  RH  046%=      5-min Rain = 0
KAM1 141714Z 05010KT 26/13 A303 RMK A01 T02550131  RH  046%=      5-min Rain = 0
KAM1 141715Z 05008KT 25/13 A303 RMK A01 T02540133  RH  047%=      5-min Rain = 0
KAM1 141716Z 06010G15KT 25/13 A303 RMK A01 T02540132  RH  047%=      5-min Rain = 0
KAM1 141717Z 05010KT 26/13 A3029 RMK A01 T02560132  RH  046%=      5-min Rain = 0
KAM1 141718Z 05009KT 26/14 A3029 RMK A01 T02590135  RH  046%=      5-min Rain = 0
KAM1 141719Z 05010KT 26/13 A3029 RMK A01 T02600133  RH  045%=      5-min Rain = 0
KAM1 141720Z 05007KT 26/14 A3029 RMK A01 T02600135  RH  046%=      5-min Rain = 0
KAM1 141721Z 06011KT 26/13 A3029 RMK A01 T02600134  RH  046%=      5-min Rain = 0
KAM1 141722Z 06010KT 26/13 A3029 RMK A01 T02620131  RH  044%=      5-min Rain = 0
KAM1 141723Z 03011KT 26/14 A3029 RMK A01 T02630135  RH  045%=      5-min Rain = 0
KAM1 141724Z 03008KT 26/14 A3029 RMK A01 T02620136  RH  046%=      5-min Rain = 0
KAM1 141725Z 04009KT 26/14 A3029 RMK A01 T02610138  RH  047%=      5-min Rain = 0
KAM1 141726Z 06008KT 27/14 A3029 RMK A01 T02650136  RH  045%=      5-min Rain = 0
KAM1 141727Z 06009KT 26/14 A3029 RMK A01 T02640136  RH  045%=      5-min Rain = 0
KAM1 141728Z 05014KT 26/13 A3029 RMK A01 T02640134  RH  045%=      5-min Rain = 0
KAM1 141729Z 04013KT 26/13 A3029 RMK A01 T02630134  RH  045%=      5-min Rain = 0
KAM1 141730Z 04009KT 26/13 A3029 RMK A01 T02590134  RH  046%=      5-min Rain = 0
KAM1 141731Z 03011KT 26/13 A3029 RMK A01 T02580133  RH  046%=      5-min Rain = 0
KAM1 141732Z 02009KT 26/13 A3029 RMK A01 T02570134  RH  046%=      5-min Rain = 0
KAM1 141733Z 02009KT 26/13 A3029 RMK A01 T02560134  RH  047%=      5-min Rain = 0
KAM1 141734Z 03007KT 26/14 A3029 RMK A01 T02550135  RH  047%=      5-min Rain = 0
KAM1 141735Z 05007KT 26/14 A3029 RMK A01 T02550136  RH  048%=      5-min Rain = 0
KAM1 141736Z 08007KT 26/14 A3028 RMK A01 T02560136  RH  048%=      5-min Rain = 0
KAM1 141737Z 05010KT 26/14 A3028 RMK A01 T02580138  RH  047%=      5-min Rain = 0
KAM1 141738Z 04009KT 26/14 A3028 RMK A01 T02600136  RH  046%=      5-min Rain = 0
KAM1 141739Z 04007KT 26/14 A3027 RMK A01 T02590138  RH  047%=      5-min Rain = 0
KAM1 141740Z 06008KT 26/14 A3027 RMK A01 T02600136  RH  046%=      5-min Rain = 0
KAM1 141741Z 07009KT 26/14 A3027 RMK A01 T02580135  RH  047%=      5-min Rain = 0
KAM1 141742Z 05008KT 26/14 A3028 RMK A01 T02560135  RH  047%=      5-min Rain = 0
KAM1 141743Z 05009KT 25/13 A3028 RMK A01 T02530134  RH  048%=      5-min Rain = 0
KAM1 141744Z 04007KT 25/14 A3028 RMK A01 T02510135  RH  048%=      5-min Rain = 0
KAM1 141745Z 06009KT 25/14 A3028 RMK A01 T02500137  RH  049%=      5-min Rain = 0
KAM1 141746Z 05009KT 25/14 A3027 RMK A01 T02520139  RH  049%=      5-min Rain = 0
KAM1 141747Z 05008KT 25/14 A3027 RMK A01 T02520138  RH  049%=      5-min Rain = 0
KAM1 141748Z 06010KT 25/14 A3027 RMK A01 T02520139  RH  050%=      5-min Rain = 0
KAM1 141749Z 04008KT 25/14 A3027 RMK A01 T02520139  RH  050%=      5-min Rain = 0
KAM1 141750Z 05008KT 25/14 A3026 RMK A01 T02530140  RH  049%=      5-min Rain = 0
KAM1 141751Z 07006KT 25/14 A3026 RMK A01 T02540140  RH  049%=      5-min Rain = 0
KAM1 141752Z 04006KT 26/14 A3026 RMK A01 T02550141  RH  049%=      5-min Rain = 0
KAM1 141753Z 06006KT 26/14 A3026 RMK A01 T02560140  RH  049%=      5-min Rain = 0
KAM1 141754Z 07005KT 26/14 A3026 RMK A01 T02560141  RH  049%=      5-min Rain = 0
KAM1 141755Z 06004KT 26/14 A3026 RMK A01 T02560140  RH  049%=      5-min Rain = 0
KAM1 141756Z 07005KT 26/14 A3026 RMK A01 T02560141  RH  049%=      5-min Rain = 0
KAM1 141757Z 05005KT 25/14 A3025 RMK A01 T02540140  RH  049%=      5-min Rain = 0
KAM1 141758Z 05007KT 25/14 A3025 RMK A01 T02540140  RH  049%=      5-min Rain = 0
KAM1 141759Z 04006KT 26/14 A3025 RMK A01 T02550140  RH  049%=      5-min Rain = 0
KAM1 141800Z 03003KT 26/14 A3025 RMK A01 T02570141  RH  049%=      5-min Rain = 0
KAM1 141801Z 06002KT 26/14 A3024 RMK A01 T02570139  RH  048%=      5-min Rain = 0
KAM1 141802Z 08005KT 26/14 A3024 RMK A01 T02570141  RH  049%=      5-min Rain = 0
KAM1 141803Z 11005KT 26/14 A3024 RMK A01 T02580139  RH  048%=      5-min Rain = 0
KAM1 141804Z 12007KT 26/14 A3024 RMK A01 T02580140  RH  048%=      5-min Rain = 0
KAM1 141805Z 13008KT 26/14 A3024 RMK A01 T02590139  RH  048%=      5-min Rain = 0
KAM1 141806Z 12008KT 26/14 A3024 RMK A01 T02590139  RH  048%=      5-min Rain = 0
KAM1 141807Z 09008KT 26/14 A3024 RMK A01 T02600139  RH  047%=      5-min Rain = 0
KAM1 141808Z 10006KT 26/14 A3024 RMK A01 T02600140  RH  047%=      5-min Rain = 0
KAM1 141809Z 10005KT 26/14 A3024 RMK A01 T02610140  RH  047%=      5-min Rain = 0
KAM1 141810Z 12006KT 26/14 A3024 RMK A01 T02610140  RH  047%=      5-min Rain = 0
KAM1 141811Z 14004KT 26/14 A3024 RMK A01 T02610139  RH  047%=      5-min Rain = 0
KAM1 141812Z 14003KT 26/14 A3024 RMK A01 T02610138  RH  046%=      5-min Rain = 0
KAM1 141813Z 10001KT 26/14 A3024 RMK A01 T02610138  RH  047%=      5-min Rain = 0
KAM1 141814Z 20001KT 26/14 A3024 RMK A01 T02610137  RH  046%=      5-min Rain = 0
KAM1 141815Z 14002KT 26/14 A3024 RMK A01 T02610138  RH  047%=      5-min Rain = 0
KAM1 141816Z 13005KT 26/14 A3024 RMK A01 T02620135  RH  046%=      5-min Rain = 0
KAM1 141817Z 15007KT 26/14 A3024 RMK A01 T02620136  RH  046%=      5-min Rain = 0
KAM1 141818Z 17005KT 26/14 A3023 RMK A01 T02640137  RH  045%=      5-min Rain = 0
KAM1 141819Z 17005KT 27/14 A3023 RMK A01 T02650137  RH  045%=      5-min Rain = 0
KAM1 141820Z 18005KT 27/14 A3023 RMK A01 T02660136  RH  045%=      5-min Rain = 0
KAM1 141821Z 16006KT 27/14 A3023 RMK A01 T02660138  RH  045%=      5-min Rain = 0
KAM1 141822Z 15006KT 27/14 A3023 RMK A01 T02670138  RH  045%=      5-min Rain = 0
KAM1 141823Z 17005KT 27/14 A3023 RMK A01 T02660137  RH  045%=      5-min Rain = 0
KAM1 141824Z 14004KT 27/14 A3022 RMK A01 T02650136  RH  045%=      5-min Rain = 0
KAM1 141825Z 17003KT 27/14 A3022 RMK A01 T02660137  RH  045%=      5-min Rain = 0
KAM1 141826Z 19005KT 27/14 A3022 RMK A01 T02680137  RH  044%=      5-min Rain = 0
KAM1 141827Z 21002KT 27/14 A3022 RMK A01 T02690137  RH  044%=      5-min Rain = 0
KAM1 141828Z 14004KT 27/14 A3022 RMK A01 T02680136  RH  044%=      5-min Rain = 0
KAM1 141829Z 13004KT 27/14 A3022 RMK A01 T02690135  RH  044%=      5-min Rain = 0
KAM1 141830Z 16004KT 27/14 A3022 RMK A01 T02720136  RH  043%=      5-min Rain = 0
KAM1 141831Z 20005KT 27/14 A3022 RMK A01 T02740137  RH  043%=      5-min Rain = 0
KAM1 141832Z 18003KT 28/14 A3023 RMK A01 T02750137  RH  043%=      5-min Rain = 0
KAM1 141833Z 19006KT 28/14 A3023 RMK A01 T02760140  RH  043%=      5-min Rain = 0
KAM1 141834Z 19005KT 28/14 A3023 RMK A01 T02820139  RH  041%=      5-min Rain = 0
KAM1 141835Z 21004KT 28/14 A3023 RMK A01 T02820137  RH  041%=      5-min Rain = 0
KAM1 141836Z 20006KT 28/14 A3022 RMK A01 T02800137  RH  041%=      5-min Rain = 0
KAM1 141837Z 18007KT 28/14 A3022 RMK A01 T02810135  RH  041%=      5-min Rain = 0
KAM1 141838Z 17004KT 28/13 A3022 RMK A01 T02810133  RH  040%=      5-min Rain = 0
KAM1 141839Z 13002KT 28/13 A3022 RMK A01 T02790133  RH  041%=      5-min Rain = 0
KAM1 141840Z 23004KT 28/13 A3022 RMK A01 T02790133  RH  041%=      5-min Rain = 0
KAM1 141841Z 24004KT 28/13 A3022 RMK A01 T02790132  RH  040%=      5-min Rain = 0
KAM1 141842Z 25002KT 28/13 A3022 RMK A01 T02780130  RH  040%=      5-min Rain = 0
KAM1 141843Z 21002KT 28/13 A3022 RMK A01 T02760131  RH  041%=      5-min Rain = 0
KAM1 141844Z 20003KT 28/13 A3022 RMK A01 T02790133  RH  041%=      5-min Rain = 0
KAM1 141845Z 18005KT 28/13 A3022 RMK A01 T02830132  RH  039%=      5-min Rain = 0
KAM1 141846Z 18005KT 28/13 A3022 RMK A01 T02840129  RH  038%=      5-min Rain = 0
KAM1 141847Z 15004KT 28/13 A3022 RMK A01 T02810128  RH  039%=      5-min Rain = 0
KAM1 141848Z 12003KT 28/13 A3022 RMK A01 T02790126  RH  039%=      5-min Rain = 0
KAM1 141849Z 09002KT 28/13 A3022 RMK A01 T02790127  RH  039%=      5-min Rain = 0
KAM1 141850Z 07002KT 28/13 A3022 RMK A01 T02790128  RH  039%=      5-min Rain = 0
KAM1 141851Z 07004KT 28/13 A3022 RMK A01 T02790125  RH  038%=      5-min Rain = 0
KAM1 141852Z 07004KT 28/13 A3022 RMK A01 T02790125  RH  039%=      5-min Rain = 0
KAM1 141853Z 06003KT 28/13 A3022 RMK A01 T02790126  RH  039%=      5-min Rain = 0
KAM1 141854Z 06002KT 28/13 A3022 RMK A01 T02790125  RH  039%=      5-min Rain = 0
KAM1 141855Z 08001KT 28/12 A3022 RMK A01 T02790124  RH  038%=      5-min Rain = 0
KAM1 141856Z 07002KT 28/12 A3022 RMK A01 T02790124  RH  038%=      5-min Rain = 0
KAM1 141857Z 07001KT 28/12 A3022 RMK A01 T02790124  RH  038%=      5-min Rain = 0
KAM1 141858Z 00000KT 28/12 A3022 RMK A01 T02790124  RH  038%=      5-min Rain = 0
KAM1 141859Z 04001KT 28/13 A3022 RMK A01 T02790125  RH  038%=      5-min Rain = 0
KAM1 141900Z 02004KT 28/13 A3022 RMK A01 T02790127  RH  039%=      5-min Rain = 0
KAM1 141901Z 02005KT 28/13 A3022 RMK A01 T02800129  RH  039%=      5-min Rain = 0
KAM1 141902Z 00004KT 28/13 A3022 RMK A01 T02810130  RH  039%=      5-min Rain = 0
KAM1 141903Z 03007KT 28/13 A3022 RMK A01 T02810130  RH  039%=      5-min Rain = 0
KAM1 141904Z 04005KT 28/13 A3022 RMK A01 T02810130  RH  039%=      5-min Rain = 0
KAM1 141905Z 05005KT 28/13 A3022 RMK A01 T02810130  RH  039%=      5-min Rain = 0
KAM1 141906Z 06005KT 28/13 A3022 RMK A01 T02800131  RH  040%=      5-min Rain = 0
KAM1 141907Z 04005KT 28/13 A3022 RMK A01 T02810130  RH  039%=      5-min Rain = 0
KAM1 141908Z 04005KT 28/13 A3022 RMK A01 T02820128  RH  039%=      5-min Rain = 0
KAM1 141909Z 05007KT 28/13 A3022 RMK A01 T02820128  RH  039%=      5-min Rain = 0
KAM1 141910Z 05006KT 28/13 A3022 RMK A01 T02820128  RH  039%=      5-min Rain = 0
KAM1 141911Z 04007KT 28/13 A3022 RMK A01 T02810129  RH  039%=      5-min Rain = 0
KAM1 141912Z 04005KT 28/13 A3022 RMK A01 T02800131  RH  040%=      5-min Rain = 0
KAM1 141913Z 05007KT 28/13 A3022 RMK A01 T02820132  RH  040%=      5-min Rain = 0
KAM1 141914Z 04007KT 28/13 A3022 RMK A01 T02830132  RH  040%=      5-min Rain = 0
KAM1 141915Z 04009KT 29/14 A3022 RMK A01 T02850138  RH  041%=      5-min Rain = 0
KAM1 141916Z 04009KT 29/14 A3022 RMK A01 T02860139  RH  041%=      5-min Rain = 0
KAM1 141917Z 05007KT 29/14 A3022 RMK A01 T02890138  RH  040%=      5-min Rain = 0
KAM1 141918Z 03007KT 29/14 A3022 RMK A01 T02900138  RH  039%=      5-min Rain = 0
KAM1 141919Z 04007KT 29/14 A3022 RMK A01 T02910139  RH  039%=      5-min Rain = 0
KAM1 141920Z 05009KT 29/14 A3022 RMK A01 T02910139  RH  040%=      5-min Rain = 0
KAM1 141921Z 05008KT 29/14 A3022 RMK A01 T02910139  RH  039%=      5-min Rain = 0
KAM1 141922Z 04007KT 29/14 A3022 RMK A01 T02890136  RH  039%=      5-min Rain = 0
KAM1 141923Z 05008KT 29/14 A3022 RMK A01 T02860137  RH  040%=      5-min Rain = 0
KAM1 141924Z 06007KT 29/14 A3022 RMK A01 T02870137  RH  040%=      5-min Rain = 0
KAM1 141925Z 05006KT 29/14 A3022 RMK A01 T02880137  RH  039%=      5-min Rain = 0
KAM1 141926Z 04007KT 29/14 A3022 RMK A01 T02880136  RH  039%=      5-min Rain = 0
KAM1 141927Z 04007KT 29/14 A3022 RMK A01 T02860136  RH  040%=      5-min Rain = 0
KAM1 141928Z 03003KT 29/14 A3022 RMK A01 T02860136  RH  040%=      5-min Rain = 0
KAM1 141929Z 05005KT 29/14 A3022 RMK A01 T02880138  RH  040%=      5-min Rain = 0
KAM1 141930Z 07003KT 29/14 A3022 RMK A01 T02900138  RH  039%=      5-min Rain = 0
KAM1 141931Z 04004KT 29/14 A3022 RMK A01 T02900139  RH  040%=      5-min Rain = 0
KAM1 141932Z 05007KT 29/14 A3022 RMK A01 T02900138  RH  039%=      5-min Rain = 0
KAM1 141933Z 04008KT 29/14 A3022 RMK A01 T02900140  RH  040%=      5-min Rain = 0
KAM1 141934Z 04006KT 29/14 A3022 RMK A01 T02900138  RH  039%=      5-min Rain = 0
KAM1 141935Z 03007KT 29/14 A3022 RMK A01 T02900139  RH  040%=      5-min Rain = 0
KAM1 141936Z 02007KT 29/14 A3022 RMK A01 T02910136  RH  039%=      5-min Rain = 0
KAM1 141937Z 02006KT 29/14 A3022 RMK A01 T02890136  RH  039%=      5-min Rain = 0
KAM1 141938Z 08003KT 29/14 A3022 RMK A01 T02870137  RH  040%=      5-min Rain = 0
KAM1 141939Z 06004KT 29/14 A3022 RMK A01 T02880137  RH  039%=      5-min Rain = 0
KAM1 141940Z 02006KT 29/14 A3022 RMK A01 T02900138  RH  039%=      5-min Rain = 0
KAM1 141941Z 02006KT 29/14 A3022 RMK A01 T02910138  RH  039%=      5-min Rain = 0
KAM1 141942Z 04009KT 29/14 A3022 RMK A01 T02890138  RH  040%=      5-min Rain = 0
KAM1 141943Z 06010KT 29/14 A3022 RMK A01 T02910136  RH  039%=      5-min Rain = 0
KAM1 141944Z 05006KT 29/14 A3021 RMK A01 T02920136  RH  038%=      5-min Rain = 0
KAM1 141945Z 05007KT 29/14 A3022 RMK A01 T02930136  RH  038%=      5-min Rain = 0
KAM1 141946Z 09006KT 30/14 A3022 RMK A01 T02950136  RH  038%=      5-min Rain = 0
KAM1 141947Z 10005KT 30/14 A3021 RMK A01 T02970135  RH  037%=      5-min Rain = 0
KAM1 141948Z 09006KT 30/14 A3021 RMK A01 T03000135  RH  036%=      5-min Rain = 0
KAM1 141949Z 09005KT 30/13 A3021 RMK A01 T03000133  RH  036%=      5-min Rain = 0
KAM1 141950Z 12004KT 30/13 A3021 RMK A01 T02980133  RH  037%=      5-min Rain = 0
KAM1 141951Z 12004KT 30/13 A3021 RMK A01 T02960131  RH  036%=      5-min Rain = 0
KAM1 141952Z 04003KT 29/13 A3021 RMK A01 T02940129  RH  036%=      5-min Rain = 0
KAM1 141953Z 04006KT 29/13 A3021 RMK A01 T02940131  RH  037%=      5-min Rain = 0
KAM1 141954Z 04001KT 30/13 A3021 RMK A01 T02950129  RH  036%=      5-min Rain = 0
KAM1 141955Z 03004KT 30/13 A3021 RMK A01 T02950131  RH  037%=      5-min Rain = 0
KAM1 141956Z 01003KT 30/13 A3021 RMK A01 T02950131  RH  036%=      5-min Rain = 0
KAM1 141957Z 02005KT 30/13 A3021 RMK A01 T02960130  RH  036%=      5-min Rain = 0
KAM1 141958Z 03003KT 30/13 A3021 RMK A01 T02960129  RH  036%=      5-min Rain = 0
KAM1 141959Z 35002KT 30/13 A3021 RMK A01 T02950130  RH  036%=      5-min Rain = 0
KAM1 142000Z 33002KT 29/13 A3021 RMK A01 T02940128  RH  036%=      5-min Rain = 0
KAM1 142001Z 03003KT 29/13 A3021 RMK A01 T02940130  RH  037%=      5-min Rain = 0
KAM1 142002Z 04004KT 29/13 A3021 RMK A01 T02940128  RH  036%=      5-min Rain = 0
KAM1 142003Z 08002KT 29/13 A3021 RMK A01 T02940129  RH  036%=      5-min Rain = 0
KAM1 142004Z 04003KT 30/13 A3021 RMK A01 T02960131  RH  036%=      5-min Rain = 0
KAM1 142005Z 04004KT 30/13 A302 RMK A01 T03000131  RH  036%=      5-min Rain = 0
KAM1 142006Z 06007KT 30/13 A302 RMK A01 T03020130  RH  035%=      5-min Rain = 0
KAM1 142007Z 04005KT 30/13 A302 RMK A01 T03020128  RH  034%=      5-min Rain = 0
KAM1 142008Z 03005KT 30/13 A302 RMK A01 T03000127  RH  034%=      5-min Rain = 0
KAM1 142009Z 03003KT 30/13 A302 RMK A01 T02970126  RH  035%=      5-min Rain = 0
KAM1 142010Z 08004KT 30/13 A302 RMK A01 T02950127  RH  036%=      5-min Rain = 0
KAM1 142011Z 11005KT 30/13 A302 RMK A01 T02970127  RH  035%=      5-min Rain = 0
KAM1 142012Z 15002KT 30/13 A302 RMK A01 T02980127  RH  035%=      5-min Rain = 0
KAM1 142013Z 10002KT 30/13 A302 RMK A01 T02970127  RH  035%=      5-min Rain = 0
KAM1 142014Z 14003KT 30/13 A302 RMK A01 T02980129  RH  035%=      5-min Rain = 0
KAM1 142015Z 09002KT 30/13 A302 RMK A01 T03000129  RH  035%=      5-min Rain = 0
KAM1 142016Z 04004KT 30/13 A302 RMK A01 T03020130  RH  035%=      5-min Rain = 0
KAM1 142017Z 05005KT 30/13 A302 RMK A01 T03040130  RH  035%=      5-min Rain = 0
KAM1 142018Z 06003KT 30/13 A302 RMK A01 T03040130  RH  034%=      5-min Rain = 0
KAM1 142019Z 09005KT 31/13 A302 RMK A01 T03050129  RH  034%=      5-min Rain = 0
KAM1 142020Z 09004KT 31/13 A302 RMK A01 T03050130  RH  034%=      5-min Rain = 0
KAM1 142021Z 08005KT 31/13 A302 RMK A01 T03070130  RH  034%=      5-min Rain = 0
KAM1 142022Z 07004KT 31/13 A302 RMK A01 T03080130  RH  034%=      5-min Rain = 0
KAM1 142023Z 07004KT 31/13 A302 RMK A01 T03060131  RH  034%=      5-min Rain = 0
KAM1 142024Z 07005KT 30/13 A302 RMK A01 T03030130  RH  035%=      5-min Rain = 0
KAM1 142025Z 04002KT 30/13 A302 RMK A01 T03010128  RH  035%=      5-min Rain = 0
KAM1 142026Z 01003KT 30/13 A302 RMK A01 T02990128  RH  035%=      5-min Rain = 0
KAM1 142027Z 06003KT 30/13 A3019 RMK A01 T02980130  RH  036%=      5-min Rain = 0
KAM1 142028Z 06003KT 30/13 A3019 RMK A01 T03010130  RH  035%=      5-min Rain = 0
KAM1 142029Z 07004KT 30/13 A3019 RMK A01 T03030129  RH  034%=      5-min Rain = 0
KAM1 142030Z 07004KT 31/13 A3019 RMK A01 T03050129  RH  034%=      5-min Rain = 0
KAM1 142031Z 06004KT 31/13 A3019 RMK A01 T03070130  RH  034%=      5-min Rain = 0
KAM1 142032Z 06003KT 31/13 A3019 RMK A01 T03070129  RH  034%=      5-min Rain = 0
KAM1 142033Z 07003KT 31/13 A3019 RMK A01 T03050127  RH  034%=      5-min Rain = 0
KAM1 142034Z 14002KT 30/13 A3019 RMK A01 T03030127  RH  034%=      5-min Rain = 0
KAM1 142035Z 06002G7KT 30/13 A3019 RMK A01 T03020128  RH  034%=      5-min Rain = 0
KAM1 142036Z 05005KT 30/13 A3019 RMK A01 T03030129  RH  034%=      5-min Rain = 0
KAM1 142037Z 04004KT 30/13 A3019 RMK A01 T03030128  RH  034%=      5-min Rain = 0
KAM1 142038Z 03004KT 30/13 A3019 RMK A01 T03030128  RH  034%=      5-min Rain = 0
KAM1 142039Z 05006KT 30/13 A3019 RMK A01 T03020128  RH  034%=      5-min Rain = 0
KAM1 142040Z 04007KT 30/13 A3019 RMK A01 T03030128  RH  034%=      5-min Rain = 0
KAM1 142041Z 04006KT 30/13 A3019 RMK A01 T03030126  RH  034%=      5-min Rain = 0
KAM1 142042Z 06005KT 30/13 A3019 RMK A01 T03020127  RH  034%=      5-min Rain = 0
KAM1 142043Z 06006KT 30/13 A3019 RMK A01 T03030126  RH  034%=      5-min Rain = 0
KAM1 142044Z 06004KT 30/12 A3019 RMK A01 T03040124  RH  033%=      5-min Rain = 0
KAM1 142045Z 02003KT 30/12 A3019 RMK A01 T03020123  RH  033%=      5-min Rain = 0
KAM1 142046Z 06001KT 30/12 A3019 RMK A01 T03010123  RH  034%=      5-min Rain = 0
KAM1 142047Z 02002KT 30/13 A3019 RMK A01 T03010126  RH  034%=      5-min Rain = 0
KAM1 142048Z 35002KT 30/12 A3019 RMK A01 T03040123  RH  033%=      5-min Rain = 0
KAM1 142049Z 04004KT 30/12 A3018 RMK A01 T03040124  RH  033%=      5-min Rain = 0
KAM1 142050Z 03004KT 31/13 A3018 RMK A01 T03060125  RH  033%=      5-min Rain = 0
KAM1 142051Z 07005KT 31/13 A3018 RMK A01 T03080127  RH  033%=      5-min Rain = 0
KAM1 142052Z 08005KT 31/12 A3019 RMK A01 T03100124  RH  032%=      5-min Rain = 0
KAM1 142053Z 07003KT 31/12 A3018 RMK A01 T03080124  RH  032%=      5-min Rain = 0
KAM1 142054Z 05004KT 31/13 A3018 RMK A01 T03080127  RH  033%=      5-min Rain = 0
KAM1 142055Z 04005KT 31/13 A3019 RMK A01 T03110126  RH  032%=      5-min Rain = 0
KAM1 142056Z 06003KT 31/12 A3019 RMK A01 T03110124  RH  032%=      5-min Rain = 0
KAM1 142057Z 00000KT 31/12 A3018 RMK A01 T03090122  RH  032%=      5-min Rain = 0
KAM1 142058Z 11001KT 31/12 A3018 RMK A01 T03070122  RH  032%=      5-min Rain = 0
KAM1 142059Z 10002KT 31/12 A3018 RMK A01 T03070124  RH  032%=      5-min Rain = 0
KAM1 142100Z 10002KT 31/12 A3018 RMK A01 T03080123  RH  032%=      5-min Rain = 0
KAM1 142101Z 08004KT 31/12 A3018 RMK A01 T03090124  RH  032%=      5-min Rain = 0
KAM1 142102Z 03004KT 31/13 A3018 RMK A01 T03120125  RH  032%=      5-min Rain = 0
KAM1 142103Z 03006KT 31/12 A3018 RMK A01 T03130122  RH  031%=      5-min Rain = 0
KAM1 142104Z 05007KT 31/12 A3018 RMK A01 T03100124  RH  032%=      5-min Rain = 0
KAM1 142105Z 06005KT 31/12 A3018 RMK A01 T03100122  RH  032%=      5-min Rain = 0
KAM1 142106Z 04003KT 31/12 A3018 RMK A01 T03090123  RH  032%=      5-min Rain = 0
KAM1 142107Z 01004KT 31/12 A3018 RMK A01 T03100124  RH  032%=      5-min Rain = 0
KAM1 142108Z 03003KT 31/12 A3018 RMK A01 T03120124  RH  032%=      5-min Rain = 0
KAM1 142109Z 03004KT 31/12 A3018 RMK A01 T03120123  RH  031%=      5-min Rain = 0
KAM1 142110Z 36001KT 31/12 A3018 RMK A01 T03100121  RH  031%=      5-min Rain = 0
KAM1 142111Z 33000KT 31/12 A3018 RMK A01 T03080121  RH  032%=      5-min Rain = 0
KAM1 142112Z 00002KT 31/12 A3018 RMK A01 T03080122  RH  032%=      5-min Rain = 0
KAM1 142113Z 04004KT 31/12 A3018 RMK A01 T03100123  RH  032%=      5-min Rain = 0
KAM1 142114Z 04003KT 31/12 A3018 RMK A01 T03110123  RH  032%=      5-min Rain = 0
KAM1 142115Z 03006KT 31/12 A3018 RMK A01 T03100124  RH  032%=      5-min Rain = 0
KAM1 142116Z 03003KT 31/12 A3018 RMK A01 T03100123  RH  032%=      5-min Rain = 0
KAM1 142117Z 02006KT 31/13 A3018 RMK A01 T03100126  RH  032%=      5-min Rain = 0
KAM1 142118Z 36006KT 31/13 A3018 RMK A01 T03140126  RH  032%=      5-min Rain = 0
KAM1 142119Z 00007KT 32/12 A3018 RMK A01 T03160124  RH  031%=      5-min Rain = 0
KAM1 142120Z 00006KT 32/12 A3017 RMK A01 T03160124  RH  031%=      5-min Rain = 0
KAM1 142121Z 35005KT 32/12 A3017 RMK A01 T03150124  RH  031%=      5-min Rain = 0
KAM1 142122Z 33003KT 31/12 A3017 RMK A01 T03140123  RH  031%=      5-min Rain = 0
KAM1 142123Z 01002KT 31/12 A3017 RMK A01 T03120124  RH  032%=      5-min Rain = 0
KAM1 142124Z 05004KT 31/12 A3017 RMK A01 T03120124  RH  032%=      5-min Rain = 0
KAM1 142125Z 03004KT 31/13 A3017 RMK A01 T03120125  RH  032%=      5-min Rain = 0
KAM1 142126Z 00004KT 31/13 A3017 RMK A01 T03140125  RH  032%=      5-min Rain = 0
KAM1 142127Z 03005KT 31/13 A3017 RMK A01 T03140125  RH  031%=      5-min Rain = 0
KAM1 142128Z 01007KT 31/12 A3017 RMK A01 T03140124  RH  031%=      5-min Rain = 0
KAM1 142129Z 36005KT 31/12 A3017 RMK A01 T03120123  RH  032%=      5-min Rain = 0
KAM1 142130Z 01003KT 31/12 A3017 RMK A01 T03100123  RH  032%=      5-min Rain = 0
KAM1 142131Z 02005KT 31/12 A3017 RMK A01 T03100124  RH  032%=      5-min Rain = 0
KAM1 142132Z 03005KT 31/13 A3017 RMK A01 T03120125  RH  032%=      5-min Rain = 0
KAM1 142133Z 01001KT 31/12 A3017 RMK A01 T03130123  RH  031%=      5-min Rain = 0
KAM1 142134Z 10002KT 31/12 A3017 RMK A01 T03110123  RH  032%=      5-min Rain = 0
KAM1 142135Z 05006KT 31/13 A3017 RMK A01 T03120125  RH  032%=      5-min Rain = 0
KAM1 142136Z 02008KT 32/13 A3017 RMK A01 T03150126  RH  032%=      5-min Rain = 0
KAM1 142137Z 03006KT 32/13 A3017 RMK A01 T03170126  RH  031%=      5-min Rain = 0
KAM1 142138Z 03007KT 32/13 A3017 RMK A01 T03170126  RH  031%=      5-min Rain = 0
KAM1 142139Z 04007KT 32/13 A3017 RMK A01 T03170126  RH  031%=      5-min Rain = 0
KAM1 142140Z 05006KT 32/13 A3017 RMK A01 T03170127  RH  031%=      5-min Rain = 0
KAM1 142141Z 03004KT 32/13 A3017 RMK A01 T03190126  RH  031%=      5-min Rain = 0
KAM1 142142Z 01006KT 32/13 A3017 RMK A01 T03170125  RH  031%=      5-min Rain = 0
KAM1 142143Z 35005KT 31/12 A3017 RMK A01 T03140123  RH  031%=      5-min Rain = 0
KAM1 142144Z 35005KT 31/12 A3017 RMK A01 T03130123  RH  031%=      5-min Rain = 0
KAM1 142145Z 00005KT 31/12 A3017 RMK A01 T03120123  RH  031%=      5-min Rain = 0
KAM1 142146Z 00006KT 31/12 A3016 RMK A01 T03120123  RH  031%=      5-min Rain = 0
KAM1 142147Z 00006KT 31/13 A3016 RMK A01 T03130125  RH  032%=      5-min Rain = 0
KAM1 142148Z 00004KT 31/12 A3016 RMK A01 T03140124  RH  031%=      5-min Rain = 0
KAM1 142149Z 03004KT 32/13 A3016 RMK A01 T03150125  RH  031%=      5-min Rain = 0
KAM1 142150Z 05006KT 32/12 A3016 RMK A01 T03150124  RH  031%=      5-min Rain = 0
KAM1 142151Z 06006KT 32/12 A3016 RMK A01 T03150123  RH  031%=      5-min Rain = 0
KAM1 142152Z 07006KT 31/12 A3016 RMK A01 T03140124  RH  031%=      5-min Rain = 0
KAM1 142153Z 08002KT 31/12 A3016 RMK A01 T03140122  RH  031%=      5-min Rain = 0
KAM1 142154Z 09005KT 31/12 A3016 RMK A01 T03130123  RH  031%=      5-min Rain = 0
KAM1 142155Z 11005KT 31/12 A3016 RMK A01 T03130123  RH  031%=      5-min Rain = 0
KAM1 142156Z 11004KT 31/12 A3016 RMK A01 T03140123  RH  031%=      5-min Rain = 0
KAM1 142157Z 13003KT 31/12 A3016 RMK A01 T03140123  RH  031%=      5-min Rain = 0
KAM1 142158Z 16005KT 31/12 A3016 RMK A01 T03140122  RH  031%=      5-min Rain = 0
KAM1 142159Z 15004KT 31/12 A3015 RMK A01 T03140122  RH  031%=      5-min Rain = 0
KAM1 142200Z 11001KT 31/12 A3016 RMK A01 T03140124  RH  031%=      5-min Rain = 0
KAM1 142201Z 09004KT 32/13 A3015 RMK A01 T03160126  RH  031%=      5-min Rain = 0
KAM1 142202Z 08005KT 32/12 A3016 RMK A01 T03190123  RH  030%=      5-min Rain = 0
KAM1 142203Z 08004KT 32/12 A3015 RMK A01 T03200123  RH  030%=      5-min Rain = 0
KAM1 142204Z 09004KT 32/12 A3015 RMK A01 T03200122  RH  030%=      5-min Rain = 0
KAM1 142205Z 12002KT 32/12 A3015 RMK A01 T03200122  RH  030%=      5-min Rain = 0
KAM1 142206Z 12001KT 32/12 A3015 RMK A01 T03200121  RH  030%=      5-min Rain = 0
KAM1 142207Z 06001KT 32/12 A3015 RMK A01 T03190122  RH  030%=      5-min Rain = 0
KAM1 142208Z 07003KT 32/12 A3015 RMK A01 T03200122  RH  030%=      5-min Rain = 0
KAM1 142209Z 07004KT 32/12 A3015 RMK A01 T03200123  RH  030%=      5-min Rain = 0
KAM1 142210Z 03003KT 32/12 A3015 RMK A01 T03200123  RH  030%=      5-min Rain = 0
KAM1 142211Z 18002KT 32/13 A3015 RMK A01 T03200126  RH  031%=      5-min Rain = 0
KAM1 142212Z 00003KT 32/12 A3015 RMK A01 T03210123  RH  030%=      5-min Rain = 0
KAM1 142213Z 04003KT 32/12 A3015 RMK A01 T03210122  RH  030%=      5-min Rain = 0
KAM1 142214Z 04002KT 32/12 A3015 RMK A01 T03210123  RH  030%=      5-min Rain = 0
KAM1 142215Z 33002KT 32/12 A3015 RMK A01 T03200123  RH  030%=      5-min Rain = 0
KAM1 142216Z 32004KT 32/12 A3015 RMK A01 T03200123  RH  030%=      5-min Rain = 0
KAM1 142217Z 32003KT 32/12 A3015 RMK A01 T03200122  RH  030%=      5-min Rain = 0
KAM1 142218Z 31004KT 32/12 A3015 RMK A01 T03220124  RH  030%=      5-min Rain = 0
KAM1 142219Z 31004KT 32/12 A3015 RMK A01 T03230122  RH  029%=      5-min Rain = 0
KAM1 142220Z 31004KT 32/12 A3015 RMK A01 T03230122  RH  029%=      5-min Rain = 0
KAM1 142221Z 31002KT 32/12 A3015 RMK A01 T03230121  RH  029%=      5-min Rain = 0
KAM1 142222Z 30002KT 32/12 A3015 RMK A01 T03230120  RH  029%=      5-min Rain = 0
KAM1 142223Z 29000KT 32/12 A3015 RMK A01 T03220120  RH  029%=      5-min Rain = 0
KAM1 142224Z 32001KT 32/12 A3015 RMK A01 T03240124  RH  030%=      5-min Rain = 0
KAM1 142225Z 02003KT 33/12 A3015 RMK A01 T03260124  RH  029%=      5-min Rain = 0
KAM1 142226Z 33003KT 33/13 A3015 RMK A01 T03270125  RH  029%=      5-min Rain = 0
KAM1 142227Z 34005KT 33/13 A3015 RMK A01 T03260125  RH  029%=      5-min Rain = 0
KAM1 142228Z 31007KT 33/12 A3014 RMK A01 T03260122  RH  029%=      5-min Rain = 0
KAM1 142229Z 35008KT 33/12 A3014 RMK A01 T03250124  RH  029%=      5-min Rain = 0
KAM1 142230Z 05007KT 33/13 A3014 RMK A01 T03260125  RH  030%=      5-min Rain = 0
KAM1 142231Z 01003KT 33/12 A3015 RMK A01 T03270124  RH  029%=      5-min Rain = 0
KAM1 142232Z 07003KT 33/12 A3014 RMK A01 T03250122  RH  029%=      5-min Rain = 0
KAM1 142233Z 04004KT 32/12 A3015 RMK A01 T03240124  RH  030%=      5-min Rain = 0
KAM1 142234Z 04005KT 32/12 A3015 RMK A01 T03240123  RH  029%=      5-min Rain = 0
KAM1 142235Z 05005KT 33/12 A3015 RMK A01 T03250123  RH  029%=      5-min Rain = 0
KAM1 142236Z 05005KT 33/12 A3015 RMK A01 T03250124  RH  029%=      5-min Rain = 0
KAM1 142237Z 04003KT 32/12 A3015 RMK A01 T03230122  RH  029%=      5-min Rain = 0
KAM1 142238Z 02004KT 32/12 A3015 RMK A01 T03200120  RH  029%=      5-min Rain = 0
KAM1 142239Z 01005KT 32/12 A3015 RMK A01 T03190120  RH  030%=      5-min Rain = 0
KAM1 142240Z 02005KT 32/12 A3015 RMK A01 T03180119  RH  030%=      5-min Rain = 0
KAM1 142241Z 00004KT 32/12 A3014 RMK A01 T03180119  RH  030%=      5-min Rain = 0
KAM1 142242Z 02002KT 32/12 A3014 RMK A01 T03180118  RH  029%=      5-min Rain = 0
KAM1 142243Z 09003KT 32/12 A3014 RMK A01 T03170119  RH  030%=      5-min Rain = 0
KAM1 142244Z 11005KT 32/12 A3014 RMK A01 T03180120  RH  030%=      5-min Rain = 0
KAM1 142245Z 12004KT 32/12 A3014 RMK A01 T03200121  RH  030%=      5-min Rain = 0
KAM1 142246Z 12005KT 32/12 A3014 RMK A01 T03220121  RH  029%=      5-min Rain = 0
KAM1 142247Z 11003KT 32/12 A3014 RMK A01 T03220120  RH  029%=      5-min Rain = 0
KAM1 142248Z 12003KT 32/12 A3014 RMK A01 T03220120  RH  029%=      5-min Rain = 0
KAM1 142249Z 02003KT 32/12 A3014 RMK A01 T03200120  RH  029%=      5-min Rain = 0
KAM1 142250Z 03002KT 32/12 A3014 RMK A01 T03190118  RH  029%=      5-min Rain = 0
KAM1 142251Z 05004KT 32/12 A3014 RMK A01 T03190119  RH  030%=      5-min Rain = 0
KAM1 142252Z 04006KT 32/12 A3014 RMK A01 T03200119  RH  029%=      5-min Rain = 0
KAM1 142253Z 04005KT 32/12 A3014 RMK A01 T03200118  RH  029%=      5-min Rain = 0
KAM1 142254Z 05006KT 32/12 A3014 RMK A01 T03200118  RH  029%=      5-min Rain = 0
KAM1 142255Z 06006KT 32/12 A3014 RMK A01 T03190118  RH  029%=      5-min Rain = 0
KAM1 142256Z 07004KT 32/12 A3014 RMK A01 T03190117  RH  029%=      5-min Rain = 0
KAM1 142257Z 07004KT 32/12 A3014 RMK A01 T03180118  RH  029%=      5-min Rain = 0
KAM1 142258Z 07004KT 32/12 A3014 RMK A01 T03190119  RH  029%=      5-min Rain = 0
KAM1 142259Z 08005KT 32/12 A3014 RMK A01 T03200120  RH  029%=      5-min Rain = 0
KAM1 142300Z 07006KT 32/12 A3014 RMK A01 T03210119  RH  029%=      5-min Rain = 0
KAM1 142301Z 05004KT 32/12 A3014 RMK A01 T03200118  RH  029%=      5-min Rain = 0
KAM1 142302Z 05006KT 32/12 A3014 RMK A01 T03200119  RH  029%=      5-min Rain = 0
KAM1 142303Z 04008KT 32/12 A3014 RMK A01 T03200119  RH  029%=      5-min Rain = 0
KAM1 142304Z 03008KT 32/12 A3014 RMK A01 T03190120  RH  030%=      5-min Rain = 0
KAM1 142305Z 04006KT 32/12 A3015 RMK A01 T03180118  RH  029%=      5-min Rain = 0
KAM1 142306Z 03005KT 32/12 A3015 RMK A01 T03170120  RH  030%=      5-min Rain = 0
KAM1 142307Z 01004KT 32/12 A3015 RMK A01 T03170120  RH  030%=      5-min Rain = 0
KAM1 142308Z 36004KT 32/12 A3015 RMK A01 T03170118  RH  030%=      5-min Rain = 0
KAM1 142309Z 01004KT 32/12 A3015 RMK A01 T03170117  RH  029%=      5-min Rain = 0
KAM1 142310Z 02004KT 32/12 A3015 RMK A01 T03160119  RH  030%=      5-min Rain = 0
KAM1 142311Z 01003KT 32/12 A3015 RMK A01 T03170118  RH  030%=      5-min Rain = 0
KAM1 142312Z 33001KT 32/12 A3015 RMK A01 T03170118  RH  029%=      5-min Rain = 0
KAM1 142313Z 36000KT 32/12 A3014 RMK A01 T03170119  RH  030%=      5-min Rain = 0
KAM1 142314Z 03003KT 32/12 A3014 RMK A01 T03200122  RH  030%=      5-min Rain = 0
KAM1 142315Z 04003KT 32/12 A3014 RMK A01 T03220120  RH  029%=      5-min Rain = 0
KAM1 142316Z 07003KT 32/12 A3014 RMK A01 T03220118  RH  029%=      5-min Rain = 0
KAM1 142317Z 08005KT 32/12 A3014 RMK A01 T03210119  RH  029%=      5-min Rain = 0
KAM1 142318Z 07006KT 32/12 A3014 RMK A01 T03220117  RH  029%=      5-min Rain = 0
KAM1 142319Z 07005KT 32/12 A3014 RMK A01 T03210119  RH  029%=      5-min Rain = 0
KAM1 142320Z 07005KT 32/12 A3014 RMK A01 T03220118  RH  029%=      5-min Rain = 0
KAM1 142321Z 09003KT 32/12 A3014 RMK A01 T03230117  RH  028%=      5-min Rain = 0
KAM1 142322Z 08001KT 32/12 A3014 RMK A01 T03220117  RH  029%=      5-min Rain = 0
KAM1 142323Z 05002KT 32/12 A3014 RMK A01 T03220118  RH  029%=      5-min Rain = 0
KAM1 142324Z 04005KT 32/12 A3014 RMK A01 T03220117  RH  029%=      5-min Rain = 0
KAM1 142325Z 02004KT 32/12 A3014 RMK A01 T03210115  RH  028%=      5-min Rain = 0
KAM1 142326Z 03004KT 32/12 A3014 RMK A01 T03190116  RH  029%=      5-min Rain = 0
KAM1 142327Z 04004KT 32/12 A3014 RMK A01 T03180117  RH  029%=      5-min Rain = 0
KAM1 142328Z 04006KT 32/12 A3014 RMK A01 T03190119  RH  029%=      5-min Rain = 0
KAM1 142329Z 08006KT 32/12 A3014 RMK A01 T03210117  RH  029%=      5-min Rain = 0
KAM1 142330Z 08006KT 32/11 A3014 RMK A01 T03220114  RH  028%=      5-min Rain = 0
KAM1 142331Z 07005KT 32/12 A3014 RMK A01 T03220115  RH  028%=      5-min Rain = 0
KAM1 142332Z 05005KT 32/12 A3014 RMK A01 T03220115  RH  028%=      5-min Rain = 0
KAM1 142333Z 07005KT 32/12 A3014 RMK A01 T03200116  RH  029%=      5-min Rain = 0
KAM1 142334Z 08006KT 32/12 A3014 RMK A01 T03200115  RH  028%=      5-min Rain = 0
KAM1 142335Z 09004KT 32/11 A3014 RMK A01 T03210111  RH  028%=      5-min Rain = 0
KAM1 142336Z 09003KT 32/11 A3014 RMK A01 T03210113  RH  028%=      5-min Rain = 0
KAM1 142337Z 05005KT 32/11 A3014 RMK A01 T03210114  RH  028%=      5-min Rain = 0
KAM1 142338Z 04004KT 32/11 A3014 RMK A01 T03200114  RH  028%=      5-min Rain = 0
KAM1 142339Z 05003KT 32/11 A3013 RMK A01 T03190114  RH  029%=      5-min Rain = 0
KAM1 142340Z 04004KT 32/11 A3013 RMK A01 T03190114  RH  029%=      5-min Rain = 0
KAM1 142341Z 07004KT 32/12 A3013 RMK A01 T03190115  RH  029%=      5-min Rain = 0
KAM1 142342Z 07004G9KT 32/12 A3013 RMK A01 T03200118  RH  029%=      5-min Rain = 0
KAM1 142343Z 08008KT 32/12 A3013 RMK A01 T03220116  RH  028%=      5-min Rain = 0
KAM1 142344Z 06004KT 32/11 A3013 RMK A01 T03210113  RH  028%=      5-min Rain = 0
KAM1 142345Z 05006KT 32/11 A3013 RMK A01 T03200114  RH  028%=      5-min Rain = 0
KAM1 142346Z 05007KT 32/11 A3013 RMK A01 T03200113  RH  028%=      5-min Rain = 0
KAM1 142347Z 07007KT 32/11 A3013 RMK A01 T03180114  RH  029%=      5-min Rain = 0
KAM1 142348Z 09006KT 32/11 A3013 RMK A01 T03180109  RH  028%=      5-min Rain = 0
KAM1 142349Z 07005KT 32/11 A3013 RMK A01 T03170108  RH  028%=      5-min Rain = 0
KAM1 142350Z 06006KT 32/11 A3013 RMK A01 T03160109  RH  028%=      5-min Rain = 0
KAM1 142351Z 06005KT 32/11 A3013 RMK A01 T03170110  RH  028%=      5-min Rain = 0
KAM1 142352Z 07007KT 32/11 A3013 RMK A01 T03180109  RH  028%=      5-min Rain = 0
KAM1 142353Z 07005KT 32/11 A3013 RMK A01 T03180107  RH  027%=      5-min Rain = 0
KAM1 142354Z 05005KT 32/11 A3013 RMK A01 T03180107  RH  027%=      5-min Rain = 0
KAM1 142355Z 06004KT 32/11 A3013 RMK A01 T03170106  RH  027%=      5-min Rain = 0
KAM1 142356Z 07004KT 32/11 A3013 RMK A01 T03160107  RH  028%=      5-min Rain = 0
KAM1 142357Z 09007KT 32/11 A3013 RMK A01 T03160108  RH  028%=      5-min Rain = 0
KAM1 142358Z 07006KT 32/11 A3013 RMK A01 T03160108  RH  028%=      5-min Rain = 0
KAM1 142359Z 05005KT 32/11 A3013 RMK A01 T03160108  RH  028%=      5-min Rain = 0
KAM1 150000Z 08004KT 32/11 A3013 RMK A01 T03170109  RH  028%=      5-min Rain = 0
KAM1 150001Z 10005KT 32/11 A3014 RMK A01 T03170109  RH  028%=      5-min Rain = 0
KAM1 150002Z 10004KT 32/11 A3014 RMK A01 T03170108  RH  028%=      5-min Rain = 0
KAM1 150003Z 09004KT 32/11 A3013 RMK A01 T03170111  RH  028%=      5-min Rain = 0
KAM1 150004Z 13006KT 32/11 A3013 RMK A01 T03180111  RH  028%=      5-min Rain = 0
KAM1 150005Z 14005KT 32/12 A3014 RMK A01 T03170116  RH  029%=      5-min Rain = 0
KAM1 150006Z 12003KT 32/12 A3014 RMK A01 T03160118  RH  030%=      5-min Rain = 0
KAM1 150007Z 11007KT 32/12 A3014 RMK A01 T03160120  RH  030%=      5-min Rain = 0
KAM1 150008Z 11008KT 32/12 A3014 RMK A01 T03160120  RH  030%=      5-min Rain = 0
KAM1 150009Z 12007KT 32/12 A3014 RMK A01 T03150119  RH  030%=      5-min Rain = 0
KAM1 150010Z 12008KT 32/12 A3014 RMK A01 T03150121  RH  030%=      5-min Rain = 0
KAM1 150011Z 11008KT 32/12 A3013 RMK A01 T03150120  RH  030%=      5-min Rain = 0
KAM1 150012Z 11007KT 31/12 A3013 RMK A01 T03140120  RH  030%=      5-min Rain = 0
KAM1 150013Z 12008KT 31/12 A3013 RMK A01 T03140119  RH  030%=      5-min Rain = 0
KAM1 150014Z 12008KT 31/12 A3013 RMK A01 T03140121  RH  031%=      5-min Rain = 0
KAM1 150015Z 12009KT 31/12 A3013 RMK A01 T03130121  RH  031%=      5-min Rain = 0
KAM1 150016Z 13008KT 31/12 A3013 RMK A01 T03130118  RH  030%=      5-min Rain = 0
KAM1 150017Z 12005KT 31/12 A3013 RMK A01 T03120119  RH  031%=      5-min Rain = 0
KAM1 150018Z 11005KT 31/12 A3013 RMK A01 T03120120  RH  031%=      5-min Rain = 0
KAM1 150019Z 11005KT 31/12 A3013 RMK A01 T03120120  RH  031%=      5-min Rain = 0
KAM1 150020Z 10007KT 31/12 A3013 RMK A01 T03120120  RH  031%=      5-min Rain = 0
KAM1 150021Z 11006KT 31/12 A3013 RMK A01 T03120121  RH  031%=      5-min Rain = 0
KAM1 150022Z 11005KT 31/12 A3013 RMK A01 T03120121  RH  031%=      5-min Rain = 0
KAM1 150023Z 11007KT 31/12 A3013 RMK A01 T03120122  RH  031%=      5-min Rain = 0
KAM1 150024Z 12007KT 31/12 A3013 RMK A01 T03120123  RH  031%=      5-min Rain = 0
KAM1 150025Z 11006KT 31/12 A3013 RMK A01 T03110124  RH  032%=      5-min Rain = 0
KAM1 150026Z 10008KT 31/12 A3013 RMK A01 T03110120  RH  031%=      5-min Rain = 0
KAM1 150027Z 10006KT 31/12 A3013 RMK A01 T03100119  RH  031%=      5-min Rain = 0
KAM1 150028Z 11005KT 31/12 A3013 RMK A01 T03100119  RH  031%=      5-min Rain = 0
KAM1 150029Z 11005KT 31/12 A3013 RMK A01 T03100119  RH  031%=      5-min Rain = 0
KAM1 150030Z 11006KT 31/12 A3013 RMK A01 T03100121  RH  031%=      5-min Rain = 0
KAM1 150031Z 11008KT 31/12 A3013 RMK A01 T03100121  RH  031%=      5-min Rain = 0
KAM1 150032Z 11006KT 31/12 A3013 RMK A01 T03100122  RH  032%=      5-min Rain = 0
KAM1 150033Z 10006KT 31/12 A3014 RMK A01 T03090122  RH  032%=      5-min Rain = 0
KAM1 150034Z 11005KT 31/12 A3014 RMK A01 T03090121  RH  032%=      5-min Rain = 0
KAM1 150035Z 11006KT 31/12 A3014 RMK A01 T03080123  RH  032%=      5-min Rain = 0
KAM1 150036Z 11006KT 31/12 A3014 RMK A01 T03070122  RH  032%=      5-min Rain = 0
KAM1 150037Z 11008KT 31/12 A3014 RMK A01 T03060123  RH  033%=      5-min Rain = 0
KAM1 150038Z 11007KT 31/13 A3014 RMK A01 T03060126  RH  033%=      5-min Rain = 0
KAM1 150039Z 11008KT 31/13 A3014 RMK A01 T03050125  RH  033%=      5-min Rain = 0
KAM1 150040Z 12008KT 30/12 A3014 RMK A01 T03040123  RH  033%=      5-min Rain = 0
KAM1 150041Z 11007KT 30/12 A3014 RMK A01 T03030122  RH  033%=      5-min Rain = 0
KAM1 150042Z 11007KT 30/12 A3014 RMK A01 T03030123  RH  033%=      5-min Rain = 0
KAM1 150043Z 11007KT 30/13 A3014 RMK A01 T03020125  RH  034%=      5-min Rain = 0
KAM1 150044Z 11008KT 30/13 A3014 RMK A01 T03010125  RH  034%=      5-min Rain = 0
KAM1 150045Z 11007KT 30/13 A3014 RMK A01 T02990125  RH  034%=      5-min Rain = 0
KAM1 150046Z 11007KT 30/13 A3014 RMK A01 T02980125  RH  035%=      5-min Rain = 0
KAM1 150047Z 11005KT 30/12 A3014 RMK A01 T02960124  RH  035%=      5-min Rain = 0
KAM1 150048Z 11007KT 30/12 A3014 RMK A01 T02950124  RH  035%=      5-min Rain = 0
KAM1 150049Z 11008KT 29/12 A3014 RMK A01 T02940122  RH  035%=      5-min Rain = 0
KAM1 150050Z 10007KT 29/12 A3014 RMK A01 T02940123  RH  035%=      5-min Rain = 0
KAM1 150051Z 11007KT 29/12 A3014 RMK A01 T02930123  RH  035%=      5-min Rain = 0
KAM1 150052Z 11006KT 29/12 A3014 RMK A01 T02920124  RH  036%=      5-min Rain = 0
KAM1 150053Z 11007KT 29/13 A3014 RMK A01 T02920126  RH  036%=      5-min Rain = 0
KAM1 150054Z 11007KT 29/13 A3014 RMK A01 T02900125  RH  036%=      5-min Rain = 0
KAM1 150055Z 11007KT 29/13 A3014 RMK A01 T02900125  RH  036%=      5-min Rain = 0
KAM1 150056Z 11007KT 29/13 A3014 RMK A01 T02900125  RH  036%=      5-min Rain = 0
KAM1 150057Z 11007KT 29/13 A3014 RMK A01 T02890125  RH  036%=      5-min Rain = 0
KAM1 150058Z 10008KT 29/13 A3014 RMK A01 T02880125  RH  037%=      5-min Rain = 0
KAM1 150059Z 10008KT 29/13 A3014 RMK A01 T02870125  RH  037%=      5-min Rain = 0
KAM1 150100Z 10007KT 29/13 A3014 RMK A01 T02870126  RH  037%=      5-min Rain = 0
KAM1 150101Z 10007KT 29/13 A3014 RMK A01 T02860126  RH  037%=      5-min Rain = 0
KAM1 150102Z 11008KT 29/13 A3014 RMK A01 T02860126  RH  037%=      5-min Rain = 0
KAM1 150103Z 11008KT 29/13 A3014 RMK A01 T02850126  RH  037%=      5-min Rain = 0
KAM1 150104Z 10008KT 29/13 A3014 RMK A01 T02850126  RH  038%=      5-min Rain = 0
KAM1 150105Z 11007KT 28/13 A3014 RMK A01 T02840126  RH  038%=      5-min Rain = 0
KAM1 150106Z 11008KT 28/13 A3014 RMK A01 T02840126  RH  038%=      5-min Rain = 0
KAM1 150107Z 11008KT 28/13 A3014 RMK A01 T02840127  RH  038%=      5-min Rain = 0
KAM1 150108Z 11007KT 28/13 A3014 RMK A01 T02830127  RH  038%=      5-min Rain = 0
KAM1 150109Z 10008KT 28/13 A3014 RMK A01 T02810127  RH  039%=      5-min Rain = 0
KAM1 150110Z 10008KT 28/13 A3014 RMK A01 T02800128  RH  039%=      5-min Rain = 0
KAM1 150111Z 10007KT 28/13 A3014 RMK A01 T02800127  RH  039%=      5-min Rain = 0
KAM1 150112Z 10007KT 28/13 A3014 RMK A01 T02790127  RH  039%=      5-min Rain = 0
KAM1 150113Z 10008KT 28/13 A3014 RMK A01 T02790128  RH  039%=      5-min Rain = 0
KAM1 150114Z 10008KT 28/13 A3015 RMK A01 T02780127  RH  039%=      5-min Rain = 0
KAM1 150115Z 10008KT 28/13 A3015 RMK A01 T02780127  RH  039%=      5-min Rain = 0
KAM1 150116Z 10008KT 28/13 A3015 RMK A01 T02780127  RH  039%=      5-min Rain = 0
KAM1 150117Z 10007KT 28/13 A3015 RMK A01 T02780127  RH  039%=      5-min Rain = 0
KAM1 150118Z 10007KT 28/13 A3015 RMK A01 T02780127  RH  039%=      5-min Rain = 0
KAM1 150119Z 10008KT 28/13 A3015 RMK A01 T02780128  RH  039%=      5-min Rain = 0
KAM1 150120Z 10007KT 28/13 A3015 RMK A01 T02780128  RH  040%=      5-min Rain = 0
KAM1 150121Z 10007KT 28/13 A3015 RMK A01 T02770128  RH  040%=      5-min Rain = 0
KAM1 150122Z 10007KT 28/13 A3015 RMK A01 T02760128  RH  040%=      5-min Rain = 0
KAM1 150123Z 10007KT 28/13 A3015 RMK A01 T02760127  RH  040%=      5-min Rain = 0
KAM1 150124Z 10007KT 28/13 A3015 RMK A01 T02750128  RH  040%=      5-min Rain = 0
KAM1 150125Z 10008KT 28/13 A3015 RMK A01 T02750127  RH  040%=      5-min Rain = 0
KAM1 150126Z 10008KT 28/13 A3015 RMK A01 T02750127  RH  040%=      5-min Rain = 0
KAM1 150127Z 10008KT 27/13 A3015 RMK A01 T02740127  RH  040%=      5-min Rain = 0
KAM1 150128Z 10007KT 27/13 A3015 RMK A01 T02740127  RH  040%=      5-min Rain = 0
KAM1 150129Z 10007KT 27/13 A3015 RMK A01 T02730127  RH  041%=      5-min Rain = 0
KAM1 150130Z 10008KT 27/13 A3015 RMK A01 T02730127  RH  041%=      5-min Rain = 0
KAM1 150131Z 11008KT 27/13 A3015 RMK A01 T02720128  RH  041%=      5-min Rain = 0
KAM1 150132Z 10008KT 27/13 A3015 RMK A01 T02710128  RH  041%=      5-min Rain = 0
KAM1 150133Z 10007KT 27/13 A3015 RMK A01 T02700128  RH  041%=      5-min Rain = 0
KAM1 150134Z 11008KT 27/13 A3015 RMK A01 T02700128  RH  041%=      5-min Rain = 0
KAM1 150135Z 10008KT 27/13 A3015 RMK A01 T02690128  RH  042%=      5-min Rain = 0
KAM1 150136Z 10007KT 27/13 A3015 RMK A01 T02680128  RH  042%=      5-min Rain = 0
KAM1 150137Z 10008KT 27/13 A3015 RMK A01 T02680128  RH  042%=      5-min Rain = 0
KAM1 150138Z 10007KT 27/13 A3015 RMK A01 T02670128  RH  042%=      5-min Rain = 0
KAM1 150139Z 10008KT 27/13 A3015 RMK A01 T02670128  RH  042%=      5-min Rain = 0
KAM1 150140Z 10008KT 27/13 A3015 RMK A01 T02670129  RH  042%=      5-min Rain = 0
KAM1 150141Z 10007KT 27/13 A3015 RMK A01 T02670128  RH  042%=      5-min Rain = 0
KAM1 150142Z 10007KT 27/13 A3015 RMK A01 T02660128  RH  042%=      5-min Rain = 0
KAM1 150143Z 10007KT 27/13 A3015 RMK A01 T02660128  RH  043%=      5-min Rain = 0
KAM1 150144Z 10007KT 27/13 A3016 RMK A01 T02650128  RH  043%=      5-min Rain = 0
KAM1 150145Z 10007KT 27/13 A3016 RMK A01 T02650129  RH  043%=      5-min Rain = 0
KAM1 150146Z 10007KT 27/13 A3016 RMK A01 T02650129  RH  043%=      5-min Rain = 0
KAM1 150147Z 10007KT 27/13 A3016 RMK A01 T02650129  RH  043%=      5-min Rain = 0
KAM1 150148Z 10007KT 27/13 A3016 RMK A01 T02650129  RH  043%=      5-min Rain = 0
KAM1 150149Z 10007KT 26/13 A3016 RMK A01 T02640129  RH  043%=      5-min Rain = 0
KAM1 150150Z 10007KT 26/13 A3016 RMK A01 T02630129  RH  043%=      5-min Rain = 0
KAM1 150151Z 10007KT 26/13 A3016 RMK A01 T02630129  RH  043%=      5-min Rain = 0
KAM1 150152Z 10007KT 26/13 A3016 RMK A01 T02630129  RH  043%=      5-min Rain = 0
KAM1 150153Z 11007KT 26/13 A3015 RMK A01 T02630129  RH  044%=      5-min Rain = 0
KAM1 150154Z 11007KT 26/13 A3015 RMK A01 T02620129  RH  044%=      5-min Rain = 0
KAM1 150155Z 11007KT 26/13 A3016 RMK A01 T02620130  RH  044%=      5-min Rain = 0
KAM1 150156Z 11007KT 26/13 A3016 RMK A01 T02610130  RH  044%=      5-min Rain = 0
KAM1 150157Z 11007KT 26/13 A3016 RMK A01 T02600130  RH  044%=      5-min Rain = 0
KAM1 150158Z 11007KT 26/13 A3016 RMK A01 T02600130  RH  045%=      5-min Rain = 0
KAM1 150159Z 10007KT 26/13 A3016 RMK A01 T02590130  RH  045%=      5-min Rain = 0
KAM1 150200Z 11007KT 26/13 A3016 RMK A01 T02590130  RH  045%=      5-min Rain = 0
KAM1 150201Z 11007KT 26/13 A3016 RMK A01 T02590130  RH  045%=      5-min Rain = 0
KAM1 150202Z 11007KT 26/13 A3016 RMK A01 T02590130  RH  045%=      5-min Rain = 0
KAM1 150203Z 11007KT 26/13 A3016 RMK A01 T02580130  RH  045%=      5-min Rain = 0
KAM1 150204Z 11007KT 26/13 A3016 RMK A01 T02580130  RH  045%=      5-min Rain = 0
KAM1 150205Z 11007KT 26/13 A3016 RMK A01 T02580130  RH  045%=      5-min Rain = 0
KAM1 150206Z 11007KT 26/13 A3016 RMK A01 T02570130  RH  045%=      5-min Rain = 0
KAM1 150207Z 11007KT 26/13 A3016 RMK A01 T02560130  RH  045%=      5-min Rain = 0
KAM1 150208Z 11007KT 26/13 A3016 RMK A01 T02560131  RH  046%=      5-min Rain = 0
KAM1 150209Z 11007KT 26/13 A3016 RMK A01 T02550130  RH  046%=      5-min Rain = 0
KAM1 150210Z 11007KT 26/13 A3016 RMK A01 T02550131  RH  046%=      5-min Rain = 0
KAM1 150211Z 12007KT 25/13 A3016 RMK A01 T02540130  RH  046%=      5-min Rain = 0
KAM1 150212Z 12007KT 25/13 A3016 RMK A01 T02540131  RH  046%=      5-min Rain = 0
KAM1 150213Z 12007KT 25/13 A3016 RMK A01 T02540130  RH  046%=      5-min Rain = 0
KAM1 150214Z 12007KT 25/13 A3016 RMK A01 T02540130  RH  046%=      5-min Rain = 0
KAM1 150215Z 12007KT 25/13 A3016 RMK A01 T02540131  RH  046%=      5-min Rain = 0
KAM1 150216Z 12007KT 25/13 A3016 RMK A01 T02540130  RH  046%=      5-min Rain = 0
KAM1 150217Z 11007KT 25/13 A3016 RMK A01 T02540130  RH  046%=      5-min Rain = 0
KAM1 150218Z 12007KT 25/13 A3016 RMK A01 T02540130  RH  046%=      5-min Rain = 0
KAM1 150219Z 12007KT 25/13 A3016 RMK A01 T02540130  RH  046%=      5-min Rain = 0
KAM1 150220Z 12007KT 26/13 A3016 RMK A01 T02550130  RH  046%=      5-min Rain = 0
KAM1 150221Z 12007KT 26/13 A3016 RMK A01 T02550130  RH  046%=      5-min Rain = 0
KAM1 150222Z 12007KT 25/13 A3016 RMK A01 T02540131  RH  046%=      5-min Rain = 0
KAM1 150223Z 12007KT 25/13 A3016 RMK A01 T02540131  RH  047%=      5-min Rain = 0
KAM1 150224Z 12007KT 25/13 A3016 RMK A01 T02530131  RH  047%=      5-min Rain = 0
KAM1 150225Z 12006KT 25/13 A3016 RMK A01 T02530131  RH  047%=      5-min Rain = 0
KAM1 150226Z 12006KT 25/13 A3016 RMK A01 T02530131  RH  047%=      5-min Rain = 0
KAM1 150227Z 12006KT 25/13 A3016 RMK A01 T02520132  RH  047%=      5-min Rain = 0
KAM1 150228Z 12006KT 25/13 A3016 RMK A01 T02510131  RH  047%=      5-min Rain = 0
KAM1 150229Z 12005KT 25/13 A3017 RMK A01 T02500131  RH  047%=      5-min Rain = 0
KAM1 150230Z 12006KT 25/13 A3017 RMK A01 T02500131  RH  048%=      5-min Rain = 0
KAM1 150231Z 12006KT 25/13 A3017 RMK A01 T02490131  RH  048%=      5-min Rain = 0
KAM1 150232Z 12005KT 25/13 A3017 RMK A01 T02490131  RH  048%=      5-min Rain = 0
KAM1 150233Z 12006KT 25/13 A3017 RMK A01 T02480131  RH  048%=      5-min Rain = 0
KAM1 150234Z 12006KT 25/13 A3017 RMK A01 T02480131  RH  048%=      5-min Rain = 0
KAM1 150235Z 12006KT 25/13 A3017 RMK A01 T02470131  RH  049%=      5-min Rain = 0
KAM1 150236Z 12006KT 25/13 A3017 RMK A01 T02470132  RH  049%=      5-min Rain = 0
KAM1 150237Z 12006KT 25/13 A3017 RMK A01 T02460132  RH  049%=      5-min Rain = 0
KAM1 150238Z 12006KT 25/13 A3017 RMK A01 T02460132  RH  049%=      5-min Rain = 0
KAM1 150239Z 12006KT 25/13 A3017 RMK A01 T02450132  RH  049%=      5-min Rain = 0
KAM1 150240Z 12006KT 25/13 A3017 RMK A01 T02450132  RH  049%=      5-min Rain = 0
KAM1 150241Z 12007KT 25/13 A3017 RMK A01 T02450132  RH  050%=      5-min Rain = 0
KAM1 150242Z 12007KT 25/13 A3017 RMK A01 T02450133  RH  050%=      5-min Rain = 0
KAM1 150243Z 12006KT 24/13 A3017 RMK A01 T02440133  RH  050%=      5-min Rain = 0
KAM1 150244Z 12007KT 25/13 A3017 RMK A01 T02450133  RH  050%=      5-min Rain = 0
KAM1 150245Z 12007KT 24/13 A3017 RMK A01 T02440133  RH  050%=      5-min Rain = 0
KAM1 150246Z 12007KT 24/13 A3017 RMK A01 T02440134  RH  050%=      5-min Rain = 0
KAM1 150247Z 12007KT 25/13 A3017 RMK A01 T02450134  RH  050%=      5-min Rain = 0
KAM1 150248Z 12007KT 25/13 A3017 RMK A01 T02450133  RH  050%=      5-min Rain = 0
KAM1 150249Z 12008KT 25/13 A3017 RMK A01 T02450133  RH  050%=      5-min Rain = 0
KAM1 150250Z 12008KT 25/13 A3017 RMK A01 T02450133  RH  050%=      5-min Rain = 0
KAM1 150251Z 12009KT 25/13 A3017 RMK A01 T02460133  RH  050%=      5-min Rain = 0
KAM1 150252Z 12009KT 25/13 A3017 RMK A01 T02460133  RH  049%=      5-min Rain = 0
KAM1 150253Z 12009KT 25/13 A3017 RMK A01 T02480133  RH  049%=      5-min Rain = 0
KAM1 150254Z 12009KT 25/13 A3017 RMK A01 T02490133  RH  048%=      5-min Rain = 0
KAM1 150255Z 12009KT 25/13 A3017 RMK A01 T02510132  RH  048%=      5-min Rain = 0
KAM1 150256Z 12008KT 25/13 A3017 RMK A01 T02530133  RH  047%=      5-min Rain = 0
KAM1 150257Z 12008KT 25/13 A3017 RMK A01 T02530132  RH  047%=      5-min Rain = 0
KAM1 150258Z 13008KT 25/13 A3017 RMK A01 T02530132  RH  047%=      5-min Rain = 0
KAM1 150259Z 13007KT 25/13 A3017 RMK A01 T02530133  RH  047%=      5-min Rain = 0
KAM1 150300Z 12007KT 25/13 A3017 RMK A01 T02530133  RH  047%=      5-min Rain = 0
KAM1 150301Z 12008KT 25/13 A3017 RMK A01 T02520133  RH  048%=      5-min Rain = 0
KAM1 150302Z 12008KT 25/13 A3018 RMK A01 T02520133  RH  048%=      5-min Rain = 0
KAM1 150303Z 12008KT 25/13 A3018 RMK A01 T02520133  RH  048%=      5-min Rain = 0
KAM1 150304Z 12008KT 25/13 A3018 RMK A01 T02520133  RH  048%=      5-min Rain = 0
KAM1 150305Z 12008KT 25/13 A3018 RMK A01 T02520133  RH  048%=      5-min Rain = 0
KAM1 150306Z 12007KT 25/13 A3018 RMK A01 T02520134  RH  048%=      5-min Rain = 0
KAM1 150307Z 12007KT 25/13 A3018 RMK A01 T02520134  RH  048%=      5-min Rain = 0
KAM1 150308Z 12007KT 25/13 A3018 RMK A01 T02520134  RH  048%=      5-min Rain = 0
KAM1 150309Z 12007KT 25/14 A3018 RMK A01 T02520135  RH  048%=      5-min Rain = 0
KAM1 150310Z 12007KT 25/14 A3018 RMK A01 T02520135  RH  048%=      5-min Rain = 0
KAM1 150311Z 12007KT 25/14 A3018 RMK A01 T02520135  RH  048%=      5-min Rain = 0
KAM1 150312Z 12006KT 25/14 A3018 RMK A01 T02510135  RH  048%=      5-min Rain = 0
KAM1 150313Z 12007KT 25/14 A3018 RMK A01 T02510135  RH  049%=      5-min Rain = 0
KAM1 150314Z 13007KT 25/14 A3018 RMK A01 T02500135  RH  049%=      5-min Rain = 0
KAM1 150315Z 13007KT 25/14 A3018 RMK A01 T02500135  RH  049%=      5-min Rain = 0
KAM1 150316Z 13007KT 25/14 A3018 RMK A01 T02500136  RH  049%=      5-min Rain = 0
KAM1 150317Z 13007KT 25/14 A3018 RMK A01 T02500135  RH  049%=      5-min Rain = 0
KAM1 150318Z 13007KT 25/14 A3018 RMK A01 T02500135  RH  049%=      5-min Rain = 0
KAM1 150319Z 13008KT 25/14 A3018 RMK A01 T02520136  RH  049%=      5-min Rain = 0
KAM1 150320Z 13007KT 25/14 A3018 RMK A01 T02530136  RH  048%=      5-min Rain = 0
KAM1 150321Z 13007KT 25/14 A3018 RMK A01 T02530136  RH  048%=      5-min Rain = 0
KAM1 150322Z 13008KT 25/14 A3019 RMK A01 T02540136  RH  048%=      5-min Rain = 0
KAM1 150323Z 13007KT 26/14 A3019 RMK A01 T02550136  RH  048%=      5-min Rain = 0
KAM1 150324Z 14006KT 26/14 A3019 RMK A01 T02560136  RH  047%=      5-min Rain = 0
KAM1 150325Z 14006KT 26/14 A3019 RMK A01 T02570137  RH  047%=      5-min Rain = 0
KAM1 150326Z 13007KT 26/14 A3019 RMK A01 T02570137  RH  048%=      5-min Rain = 0
KAM1 150327Z 13008KT 26/14 A3019 RMK A01 T02570138  RH  048%=      5-min Rain = 0
KAM1 150328Z 13007KT 26/14 A3019 RMK A01 T02570138  RH  048%=      5-min Rain = 0
KAM1 150329Z 13008KT 26/14 A3019 RMK A01 T02570138  RH  048%=      5-min Rain = 0
KAM1 150330Z 13008KT 26/14 A3019 RMK A01 T02580139  RH  048%=      5-min Rain = 0
KAM1 150331Z 13007KT 26/14 A3019 RMK A01 T02580139  RH  048%=      5-min Rain = 0
KAM1 150332Z 13008KT 26/14 A3019 RMK A01 T02590139  RH  047%=      5-min Rain = 0
KAM1 150333Z 13007KT 26/14 A3019 RMK A01 T02590139  RH  047%=      5-min Rain = 0
KAM1 150334Z 13007KT 26/14 A3019 RMK A01 T02590139  RH  047%=      5-min Rain = 0
KAM1 150335Z 12007KT 26/14 A3019 RMK A01 T02590139  RH  048%=      5-min Rain = 0
KAM1 150336Z 13008KT 26/14 A3019 RMK A01 T02590139  RH  048%=      5-min Rain = 0
KAM1 150337Z 13007KT 26/14 A3019 RMK A01 T02590139  RH  048%=      5-min Rain = 0
KAM1 150338Z 13007KT 26/14 A3019 RMK A01 T02580139  RH  048%=      5-min Rain = 0
KAM1 150339Z 12007KT 26/14 A302 RMK A01 T02570139  RH  048%=      5-min Rain = 0
KAM1 150340Z 13007KT 26/14 A302 RMK A01 T02560139  RH  049%=      5-min Rain = 0
KAM1 150341Z 13007KT 26/14 A302 RMK A01 T02550140  RH  049%=      5-min Rain = 0
KAM1 150342Z 12006KT 25/14 A302 RMK A01 T02540140  RH  049%=      5-min Rain = 0
KAM1 150343Z 12006KT 25/14 A302 RMK A01 T02530140  RH  050%=      5-min Rain = 0
KAM1 150344Z 13007KT 25/14 A302 RMK A01 T02530140  RH  050%=      5-min Rain = 0
KAM1 150345Z 12007KT 25/14 A302 RMK A01 T02520140  RH  050%=      5-min Rain = 0
KAM1 150346Z 13006KT 25/14 A302 RMK A01 T02520140  RH  050%=      5-min Rain = 0
KAM1 150347Z 12007KT 25/14 A302 RMK A01 T02510140  RH  050%=      5-min Rain = 0
KAM1 150348Z 13007KT 25/14 A302 RMK A01 T02500141  RH  051%=      5-min Rain = 0
KAM1 150349Z 12006KT 25/14 A302 RMK A01 T02500141  RH  051%=      5-min Rain = 0
KAM1 150350Z 12006KT 25/14 A302 RMK A01 T02490141  RH  051%=      5-min Rain = 0
KAM1 150351Z 12006KT 25/14 A302 RMK A01 T02490141  RH  051%=      5-min Rain = 0
KAM1 150352Z 13006KT 25/14 A302 RMK A01 T02470141  RH  051%=      5-min Rain = 0
KAM1 150353Z 13006KT 25/14 A302 RMK A01 T02470141  RH  052%=      5-min Rain = 0
KAM1 150354Z 13007KT 25/14 A302 RMK A01 T02470141  RH  052%=      5-min Rain = 0
KAM1 150355Z 13007KT 25/14 A302 RMK A01 T02460141  RH  052%=      5-min Rain = 0
KAM1 150356Z 13007KT 25/14 A302 RMK A01 T02460141  RH  052%=      5-min Rain = 0
KAM1 150357Z 13007KT 25/14 A302 RMK A01 T02450141  RH  052%=      5-min Rain = 0
KAM1 150358Z 13007KT 25/14 A302 RMK A01 T02460141  RH  052%=      5-min Rain = 0
KAM1 150359Z 13006KT 25/14 A302 RMK A01 T02460141  RH  052%=      5-min Rain = 0
KAM1 150400Z 13007KT 25/14 A302 RMK A01 T02460141  RH  052%=      5-min Rain = 0
KAM1 150401Z 13007KT 25/14 A302 RMK A01 T02460141  RH  052%=      5-min Rain = 0
KAM1 150402Z 13006KT 25/14 A302 RMK A01 T02460141  RH  052%=      5-min Rain = 0
KAM1 150403Z 13007KT 25/14 A302 RMK A01 T02460141  RH  052%=      5-min Rain = 0
KAM1 150404Z 13006KT 25/14 A302 RMK A01 T02460141  RH  052%=      5-min Rain = 0
KAM1 150405Z 13006KT 25/14 A3021 RMK A01 T02460141  RH  052%=      5-min Rain = 0
KAM1 150406Z 13007KT 25/14 A3021 RMK A01 T02460142  RH  052%=      5-min Rain = 0
KAM1 150407Z 14007KT 25/14 A3021 RMK A01 T02450142  RH  052%=      5-min Rain = 0
KAM1 150408Z 13007KT 25/14 A3021 RMK A01 T02460141  RH  052%=      5-min Rain = 0
KAM1 150409Z 13007KT 25/14 A3021 RMK A01 T02460142  RH  052%=      5-min Rain = 0
KAM1 150410Z 13006KT 25/14 A3021 RMK A01 T02470142  RH  052%=      5-min Rain = 0
KAM1 150411Z 14007KT 25/14 A3021 RMK A01 T02470142  RH  052%=      5-min Rain = 0
KAM1 150412Z 13007KT 25/14 A3021 RMK A01 T02480142  RH  052%=      5-min Rain = 0
KAM1 150413Z 13007KT 25/14 A3021 RMK A01 T02500142  RH  051%=      5-min Rain = 0
KAM1 150414Z 13009KT 25/14 A3021 RMK A01 T02500142  RH  051%=      5-min Rain = 0
KAM1 150415Z 13009KT 25/14 A302 RMK A01 T02510142  RH  051%=      5-min Rain = 0
KAM1 150416Z 13008KT 25/14 A302 RMK A01 T02530142  RH  050%=      5-min Rain = 0
KAM1 150417Z 13008KT 25/14 A302 RMK A01 T02540142  RH  050%=      5-min Rain = 0
KAM1 150418Z 13008KT 26/14 A3021 RMK A01 T02550142  RH  050%=      5-min Rain = 0
KAM1 150419Z 13009KT 26/14 A3021 RMK A01 T02550142  RH  050%=      5-min Rain = 0
KAM1 150420Z 13008KT 26/14 A3021 RMK A01 T02550142  RH  050%=      5-min Rain = 0
KAM1 150421Z 13008KT 26/14 A3021 RMK A01 T02560142  RH  050%=      5-min Rain = 0
KAM1 150422Z 13008KT 26/14 A302 RMK A01 T02550142  RH  049%=      5-min Rain = 0
KAM1 150423Z 13010KT 26/14 A3021 RMK A01 T02560142  RH  049%=      5-min Rain = 0
KAM1 150424Z 13010KT 26/14 A3021 RMK A01 T02560142  RH  049%=      5-min Rain = 0
KAM1 150425Z 13008KT 26/14 A3021 RMK A01 T02560142  RH  049%=      5-min Rain = 0
KAM1 150426Z 13009KT 26/14 A3021 RMK A01 T02560143  RH  049%=      5-min Rain = 0
KAM1 150427Z 13009KT 26/14 A3021 RMK A01 T02560143  RH  050%=      5-min Rain = 0
KAM1 150428Z 13010KT 26/14 A3021 RMK A01 T02560143  RH  050%=      5-min Rain = 0
KAM1 150429Z 13009KT 26/14 A3021 RMK A01 T02550143  RH  050%=      5-min Rain = 0
KAM1 150430Z 13009KT 26/14 A3021 RMK A01 T02560143  RH  050%=      5-min Rain = 0
KAM1 150431Z 13010KT 26/14 A3021 RMK A01 T02560143  RH  050%=      5-min Rain = 0
KAM1 150432Z 13010KT 26/14 A3021 RMK A01 T02560143  RH  050%=      5-min Rain = 0
KAM1 150433Z 13009KT 26/14 A3021 RMK A01 T02560143  RH  050%=      5-min Rain = 0
KAM1 150434Z 13010KT 26/14 A3021 RMK A01 T02560143  RH  050%=      5-min Rain = 0
KAM1 150435Z 13009KT 26/14 A3021 RMK A01 T02560143  RH  050%=      5-min Rain = 0
KAM1 150436Z 13009KT 26/14 A3021 RMK A01 T02560144  RH  050%=      5-min Rain = 0
KAM1 150437Z 13008KT 26/14 A3021 RMK A01 T02560144  RH  050%=      5-min Rain = 0
KAM1 150438Z 13008KT 26/14 A3021 RMK A01 T02550144  RH  050%=      5-min Rain = 0
KAM1 150439Z 13009KT 26/14 A3021 RMK A01 T02550144  RH  050%=      5-min Rain = 0
KAM1 150440Z 13009KT 25/14 A3021 RMK A01 T02540144  RH  050%=      5-min Rain = 0
KAM1 150441Z 13009KT 25/14 A3021 RMK A01 T02540144  RH  051%=      5-min Rain = 0
KAM1 150442Z 12009KT 25/14 A3021 RMK A01 T02530144  RH  051%=      5-min Rain = 0
KAM1 150443Z 12009KT 25/14 A3021 RMK A01 T02530144  RH  051%=      5-min Rain = 0
KAM1 150444Z 13009KT 25/14 A3021 RMK A01 T02530144  RH  051%=      5-min Rain = 0
KAM1 150445Z 13008KT 25/14 A3021 RMK A01 T02520144  RH  051%=      5-min Rain = 0
KAM1 150446Z 13009KT 25/15 A3021 RMK A01 T02530145  RH  051%=      5-min Rain = 0
KAM1 150447Z 12009KT 25/15 A3021 RMK A01 T02520145  RH  051%=      5-min Rain = 0
KAM1 150448Z 13008KT 25/15 A3021 RMK A01 T02520145  RH  051%=      5-min Rain = 0
KAM1 150449Z 12008KT 25/15 A3021 RMK A01 T02520145  RH  052%=      5-min Rain = 0
KAM1 150450Z 12008KT 25/15 A3021 RMK A01 T02510145  RH  052%=      5-min Rain = 0
KAM1 150451Z 13007KT 25/15 A3021 RMK A01 T02500145  RH  052%=      5-min Rain = 0
KAM1 150452Z 13008KT 25/15 A3021 RMK A01 T02500145  RH  052%=      5-min Rain = 0
KAM1 150453Z 13008KT 25/15 A3021 RMK A01 T02500145  RH  052%=      5-min Rain = 0
KAM1 150454Z 13008KT 25/15 A3021 RMK A01 T02510146  RH  052%=      5-min Rain = 0
KAM1 150455Z 12008KT 25/15 A3021 RMK A01 T02510146  RH  052%=      5-min Rain = 0
KAM1 150456Z 12008KT 25/15 A3021 RMK A01 T02510146  RH  052%=      5-min Rain = 0
KAM1 150457Z 12008KT 25/15 A3021 RMK A01 T02510146  RH  052%=      5-min Rain = 0
KAM1 150458Z 12007KT 25/15 A3021 RMK A01 T02500147  RH  052%=      5-min Rain = 0
KAM1 150459Z 12007KT 25/15 A3021 RMK A01 T02500147  RH  053%=      5-min Rain = 0

Page generated in 0.1237 seconds.